<?xml version="1.0" encoding="UTF-8" standalone="no" ?>
<gpx xmlns="http://www.topografix.com/GPX/1/1" creator="https://MapMagic.app" xmlns:xsi="http://www.w3.org/2001/XMLSchema-instance" xsi:schemaLocation="http://www.topografix.com/GPX/1/1 http://www.topografix.com/GPX/1/1/gpx.xsd" version="1.1">
	<wpt lat="54.942324" lon="22.489862">
		<name>КП 1</name>
		<type>Generic</type>
	</wpt>
	<wpt lat="54.634556" lon="22.566337">
		<name>КП 2</name>
		<type>Generic</type>
	</wpt>
	<wpt lat="54.630333" lon="21.820739">
		<name>КП 3</name>
		<type>Generic</type>
	</wpt>
	<wpt lat="54.876452" lon="21.649273">
		<name>КП 4</name>
		<type>Generic</type>
	</wpt>
	<trk>
		<name>300_Советский_2026</name>
		<desc></desc>
		<trkseg>
			<trkpt lat="55.081137" lon="21.889240"><ele>12.5</ele><time>1970-01-01T00:00:01Z</time></trkpt>
			<trkpt lat="55.081146" lon="21.889883"><ele>12.4</ele><time>1970-01-01T00:00:02Z</time></trkpt>
			<trkpt lat="55.081291" lon="21.891230"><ele>12.2</ele><time>1970-01-01T00:00:03Z</time></trkpt>
			<trkpt lat="55.081530" lon="21.892946"><ele>10.3</ele><time>1970-01-01T00:00:04Z</time></trkpt>
			<trkpt lat="55.081644" lon="21.894507"><ele>13.6</ele><time>1970-01-01T00:00:05Z</time></trkpt>
			<trkpt lat="55.081678" lon="21.895891"><ele>15.7</ele><time>1970-01-01T00:00:06Z</time></trkpt>
			<trkpt lat="55.081610" lon="21.899201"><ele>13.8</ele><time>1970-01-01T00:00:07Z</time></trkpt>
			<trkpt lat="55.081631" lon="21.899850"><ele>12.4</ele><time>1970-01-01T00:00:08Z</time></trkpt>
			<trkpt lat="55.081736" lon="21.900795"><ele>11.1</ele><time>1970-01-01T00:00:09Z</time></trkpt>
			<trkpt lat="55.081896" lon="21.903069"><ele>7.4</ele><time>1970-01-01T00:00:10Z</time></trkpt>
			<trkpt lat="55.082123" lon="21.903691"><ele>6.4</ele><time>1970-01-01T00:00:11Z</time></trkpt>
			<trkpt lat="55.081097" lon="21.904936"><ele>8.4</ele><time>1970-01-01T00:00:12Z</time></trkpt>
			<trkpt lat="55.080615" lon="21.905730"><ele>8.1</ele><time>1970-01-01T00:00:13Z</time></trkpt>
			<trkpt lat="55.079752" lon="21.907902"><ele>7.5</ele><time>1970-01-01T00:00:14Z</time></trkpt>
			<trkpt lat="55.079571" lon="21.908482"><ele>7.4</ele><time>1970-01-01T00:00:15Z</time></trkpt>
			<trkpt lat="55.078174" lon="21.915069"><ele>15.3</ele><time>1970-01-01T00:00:16Z</time></trkpt>
			<trkpt lat="55.078131" lon="21.915606"><ele>15.8</ele><time>1970-01-01T00:00:17Z</time></trkpt>
			<trkpt lat="55.078097" lon="21.917333"><ele>15.6</ele><time>1970-01-01T00:00:18Z</time></trkpt>
			<trkpt lat="55.078029" lon="21.917768"><ele>16.1</ele><time>1970-01-01T00:00:19Z</time></trkpt>
			<trkpt lat="55.077532" lon="21.919087"><ele>17.9</ele><time>1970-01-01T00:00:20Z</time></trkpt>
			<trkpt lat="55.076279" lon="21.922097"><ele>24.8</ele><time>1970-01-01T00:00:21Z</time></trkpt>
			<trkpt lat="55.075229" lon="21.926490"><ele>30.6</ele><time>1970-01-01T00:00:22Z</time></trkpt>
			<trkpt lat="55.074799" lon="21.927670"><ele>32.5</ele><time>1970-01-01T00:00:23Z</time></trkpt>
			<trkpt lat="55.074344" lon="21.928732"><ele>33.1</ele><time>1970-01-01T00:00:24Z</time></trkpt>
			<trkpt lat="55.073300" lon="21.930900"><ele>32.0</ele><time>1970-01-01T00:00:25Z</time></trkpt>
			<trkpt lat="55.072422" lon="21.932187"><ele>32.5</ele><time>1970-01-01T00:00:26Z</time></trkpt>
			<trkpt lat="55.070665" lon="21.934928"><ele>34.5</ele><time>1970-01-01T00:00:27Z</time></trkpt>
			<trkpt lat="55.068905" lon="21.936629"><ele>37.1</ele><time>1970-01-01T00:00:28Z</time></trkpt>
			<trkpt lat="55.068714" lon="21.936865"><ele>36.2</ele><time>1970-01-01T00:00:29Z</time></trkpt>
			<trkpt lat="55.068447" lon="21.937396"><ele>35.2</ele><time>1970-01-01T00:00:30Z</time></trkpt>
			<trkpt lat="55.066174" lon="21.942814"><ele>29.4</ele><time>1970-01-01T00:00:31Z</time></trkpt>
			<trkpt lat="55.065747" lon="21.943619"><ele>28.2</ele><time>1970-01-01T00:00:32Z</time></trkpt>
			<trkpt lat="55.063867" lon="21.945856"><ele>20.9</ele><time>1970-01-01T00:00:33Z</time></trkpt>
			<trkpt lat="55.063225" lon="21.946483"><ele>17.6</ele><time>1970-01-01T00:00:34Z</time></trkpt>
			<trkpt lat="55.062420" lon="21.947079"><ele>14.2</ele><time>1970-01-01T00:00:35Z</time></trkpt>
			<trkpt lat="55.061572" lon="21.947583"><ele>17.1</ele><time>1970-01-01T00:00:36Z</time></trkpt>
			<trkpt lat="55.061216" lon="21.947878"><ele>17.5</ele><time>1970-01-01T00:00:37Z</time></trkpt>
			<trkpt lat="55.060481" lon="21.948586"><ele>18.5</ele><time>1970-01-01T00:00:38Z</time></trkpt>
			<trkpt lat="55.059652" lon="21.949536"><ele>18.4</ele><time>1970-01-01T00:00:39Z</time></trkpt>
			<trkpt lat="55.058933" lon="21.950635"><ele>20.0</ele><time>1970-01-01T00:00:40Z</time></trkpt>
			<trkpt lat="55.057805" lon="21.952776"><ele>23.4</ele><time>1970-01-01T00:00:41Z</time></trkpt>
			<trkpt lat="55.057326" lon="21.953602"><ele>24.8</ele><time>1970-01-01T00:00:42Z</time></trkpt>
			<trkpt lat="55.056666" lon="21.954567"><ele>24.5</ele><time>1970-01-01T00:00:43Z</time></trkpt>
			<trkpt lat="55.055642" lon="21.955866"><ele>26.4</ele><time>1970-01-01T00:00:44Z</time></trkpt>
			<trkpt lat="55.055455" lon="21.956284"><ele>25.5</ele><time>1970-01-01T00:00:45Z</time></trkpt>
			<trkpt lat="55.053888" lon="21.961815"><ele>26.3</ele><time>1970-01-01T00:00:46Z</time></trkpt>
			<trkpt lat="55.053584" lon="21.963199"><ele>27.2</ele><time>1970-01-01T00:00:47Z</time></trkpt>
			<trkpt lat="55.053488" lon="21.964057"><ele>28.8</ele><time>1970-01-01T00:00:48Z</time></trkpt>
			<trkpt lat="55.053445" lon="21.966487"><ele>29.8</ele><time>1970-01-01T00:00:49Z</time></trkpt>
			<trkpt lat="55.053359" lon="21.967077"><ele>29.5</ele><time>1970-01-01T00:00:50Z</time></trkpt>
			<trkpt lat="55.053246" lon="21.967485"><ele>29.2</ele><time>1970-01-01T00:00:51Z</time></trkpt>
			<trkpt lat="55.051660" lon="21.971755"><ele>37.1</ele><time>1970-01-01T00:00:52Z</time></trkpt>
			<trkpt lat="55.049592" lon="21.975923"><ele>46.7</ele><time>1970-01-01T00:00:53Z</time></trkpt>
			<trkpt lat="55.048126" lon="21.979024"><ele>47.2</ele><time>1970-01-01T00:00:54Z</time></trkpt>
			<trkpt lat="55.047004" lon="21.982731"><ele>41.4</ele><time>1970-01-01T00:00:55Z</time></trkpt>
			<trkpt lat="55.046116" lon="21.985102"><ele>38.9</ele><time>1970-01-01T00:00:56Z</time></trkpt>
			<trkpt lat="55.044924" lon="21.989291"><ele>32.6</ele><time>1970-01-01T00:00:57Z</time></trkpt>
			<trkpt lat="55.044813" lon="21.989956"><ele>31.6</ele><time>1970-01-01T00:00:58Z</time></trkpt>
			<trkpt lat="55.044693" lon="21.991056"><ele>30.6</ele><time>1970-01-01T00:00:59Z</time></trkpt>
			<trkpt lat="55.044592" lon="21.992397"><ele>29.5</ele><time>1970-01-01T00:01:00Z</time></trkpt>
			<trkpt lat="55.044613" lon="21.992810"><ele>29.7</ele><time>1970-01-01T00:01:01Z</time></trkpt>
			<trkpt lat="55.045142" lon="21.997536"><ele>33.5</ele><time>1970-01-01T00:01:02Z</time></trkpt>
			<trkpt lat="55.045317" lon="22.008517"><ele>28.9</ele><time>1970-01-01T00:01:03Z</time></trkpt>
			<trkpt lat="55.045194" lon="22.009730"><ele>28.4</ele><time>1970-01-01T00:01:04Z</time></trkpt>
			<trkpt lat="55.043743" lon="22.018018"><ele>22.7</ele><time>1970-01-01T00:01:05Z</time></trkpt>
			<trkpt lat="55.043550" lon="22.018753"><ele>20.9</ele><time>1970-01-01T00:01:06Z</time></trkpt>
			<trkpt lat="55.043273" lon="22.019686"><ele>20.5</ele><time>1970-01-01T00:01:07Z</time></trkpt>
			<trkpt lat="55.041616" lon="22.023012"><ele>22.2</ele><time>1970-01-01T00:01:08Z</time></trkpt>
			<trkpt lat="55.041358" lon="22.023227"><ele>21.3</ele><time>1970-01-01T00:01:09Z</time></trkpt>
			<trkpt lat="55.040289" lon="22.023640"><ele>17.4</ele><time>1970-01-01T00:01:10Z</time></trkpt>
			<trkpt lat="55.040055" lon="22.023817"><ele>16.5</ele><time>1970-01-01T00:01:11Z</time></trkpt>
			<trkpt lat="55.039950" lon="22.024004"><ele>16.2</ele><time>1970-01-01T00:01:12Z</time></trkpt>
			<trkpt lat="55.039864" lon="22.024310"><ele>15.9</ele><time>1970-01-01T00:01:13Z</time></trkpt>
			<trkpt lat="55.039649" lon="22.025952"><ele>17.3</ele><time>1970-01-01T00:01:14Z</time></trkpt>
			<trkpt lat="55.039535" lon="22.026547"><ele>19.0</ele><time>1970-01-01T00:01:15Z</time></trkpt>
			<trkpt lat="55.039468" lon="22.026767"><ele>19.6</ele><time>1970-01-01T00:01:16Z</time></trkpt>
			<trkpt lat="55.038478" lon="22.029085"><ele>22.7</ele><time>1970-01-01T00:01:17Z</time></trkpt>
			<trkpt lat="55.037940" lon="22.029905"><ele>20.6</ele><time>1970-01-01T00:01:18Z</time></trkpt>
			<trkpt lat="55.037645" lon="22.030125"><ele>19.6</ele><time>1970-01-01T00:01:19Z</time></trkpt>
			<trkpt lat="55.036695" lon="22.031021"><ele>21.0</ele><time>1970-01-01T00:01:20Z</time></trkpt>
			<trkpt lat="55.036219" lon="22.031794"><ele>22.1</ele><time>1970-01-01T00:01:21Z</time></trkpt>
			<trkpt lat="55.035210" lon="22.033575"><ele>21.9</ele><time>1970-01-01T00:01:22Z</time></trkpt>
			<trkpt lat="55.034156" lon="22.036064"><ele>29.0</ele><time>1970-01-01T00:01:23Z</time></trkpt>
			<trkpt lat="55.033154" lon="22.038998"><ele>32.0</ele><time>1970-01-01T00:01:24Z</time></trkpt>
			<trkpt lat="55.033074" lon="22.039180"><ele>32.0</ele><time>1970-01-01T00:01:25Z</time></trkpt>
			<trkpt lat="55.032453" lon="22.040098"><ele>33.1</ele><time>1970-01-01T00:01:26Z</time></trkpt>
			<trkpt lat="55.033286" lon="22.042243"><ele>35.9</ele><time>1970-01-01T00:01:27Z</time></trkpt>
			<trkpt lat="55.033197" lon="22.042485"><ele>35.7</ele><time>1970-01-01T00:01:28Z</time></trkpt>
			<trkpt lat="55.033018" lon="22.042834"><ele>34.8</ele><time>1970-01-01T00:01:29Z</time></trkpt>
			<trkpt lat="55.030094" lon="22.047184"><ele>39.1</ele><time>1970-01-01T00:01:30Z</time></trkpt>
			<trkpt lat="55.029830" lon="22.047737"><ele>38.7</ele><time>1970-01-01T00:01:31Z</time></trkpt>
			<trkpt lat="55.026559" lon="22.055418"><ele>36.5</ele><time>1970-01-01T00:01:32Z</time></trkpt>
			<trkpt lat="55.020504" lon="22.074956"><ele>40.7</ele><time>1970-01-01T00:01:33Z</time></trkpt>
			<trkpt lat="55.020464" lon="22.075331"><ele>40.7</ele><time>1970-01-01T00:01:34Z</time></trkpt>
			<trkpt lat="55.020362" lon="22.078003"><ele>36.2</ele><time>1970-01-01T00:01:35Z</time></trkpt>
			<trkpt lat="55.020073" lon="22.081586"><ele>34.6</ele><time>1970-01-01T00:01:36Z</time></trkpt>
			<trkpt lat="55.019255" lon="22.081710"><ele>31.3</ele><time>1970-01-01T00:01:37Z</time></trkpt>
			<trkpt lat="55.018498" lon="22.081919"><ele>29.4</ele><time>1970-01-01T00:01:38Z</time></trkpt>
			<trkpt lat="55.016382" lon="22.082654"><ele>26.1</ele><time>1970-01-01T00:01:39Z</time></trkpt>
			<trkpt lat="55.014432" lon="22.083378"><ele>27.4</ele><time>1970-01-01T00:01:40Z</time></trkpt>
			<trkpt lat="55.012405" lon="22.084183"><ele>28.7</ele><time>1970-01-01T00:01:41Z</time></trkpt>
			<trkpt lat="55.011987" lon="22.084665"><ele>27.3</ele><time>1970-01-01T00:01:42Z</time></trkpt>
			<trkpt lat="55.011772" lon="22.085014"><ele>26.9</ele><time>1970-01-01T00:01:43Z</time></trkpt>
			<trkpt lat="55.007721" lon="22.092900"><ele>23.0</ele><time>1970-01-01T00:01:44Z</time></trkpt>
			<trkpt lat="55.002069" lon="22.101139"><ele>24.8</ele><time>1970-01-01T00:01:45Z</time></trkpt>
			<trkpt lat="55.001134" lon="22.102443"><ele>24.6</ele><time>1970-01-01T00:01:46Z</time></trkpt>
			<trkpt lat="54.999420" lon="22.104498"><ele>24.6</ele><time>1970-01-01T00:01:47Z</time></trkpt>
			<trkpt lat="54.999020" lon="22.104825"><ele>24.6</ele><time>1970-01-01T00:01:48Z</time></trkpt>
			<trkpt lat="54.997558" lon="22.105544"><ele>23.7</ele><time>1970-01-01T00:01:49Z</time></trkpt>
			<trkpt lat="54.996992" lon="22.105876"><ele>23.4</ele><time>1970-01-01T00:01:50Z</time></trkpt>
			<trkpt lat="54.990486" lon="22.111326"><ele>21.8</ele><time>1970-01-01T00:01:51Z</time></trkpt>
			<trkpt lat="54.985282" lon="22.115629"><ele>24.0</ele><time>1970-01-01T00:01:52Z</time></trkpt>
			<trkpt lat="54.984943" lon="22.116047"><ele>23.9</ele><time>1970-01-01T00:01:53Z</time></trkpt>
			<trkpt lat="54.982530" lon="22.119443"><ele>24.3</ele><time>1970-01-01T00:01:54Z</time></trkpt>
			<trkpt lat="54.980280" lon="22.122012"><ele>23.9</ele><time>1970-01-01T00:01:55Z</time></trkpt>
			<trkpt lat="54.979313" lon="22.122844"><ele>25.8</ele><time>1970-01-01T00:01:56Z</time></trkpt>
			<trkpt lat="54.977226" lon="22.124164"><ele>31.3</ele><time>1970-01-01T00:01:57Z</time></trkpt>
			<trkpt lat="54.975856" lon="22.124957"><ele>33.9</ele><time>1970-01-01T00:01:58Z</time></trkpt>
			<trkpt lat="54.973482" lon="22.127082"><ele>43.4</ele><time>1970-01-01T00:01:59Z</time></trkpt>
			<trkpt lat="54.959889" lon="22.139484"><ele>45.3</ele><time>1970-01-01T00:02:00Z</time></trkpt>
			<trkpt lat="54.957952" lon="22.141260"><ele>44.3</ele><time>1970-01-01T00:02:01Z</time></trkpt>
			<trkpt lat="54.957635" lon="22.141614"><ele>44.0</ele><time>1970-01-01T00:02:02Z</time></trkpt>
			<trkpt lat="54.957348" lon="22.142011"><ele>43.5</ele><time>1970-01-01T00:02:03Z</time></trkpt>
			<trkpt lat="54.956763" lon="22.142993"><ele>39.6</ele><time>1970-01-01T00:02:04Z</time></trkpt>
			<trkpt lat="54.956187" lon="22.143974"><ele>34.9</ele><time>1970-01-01T00:02:05Z</time></trkpt>
			<trkpt lat="54.955860" lon="22.144618"><ele>32.6</ele><time>1970-01-01T00:02:06Z</time></trkpt>
			<trkpt lat="54.954884" lon="22.146823"><ele>28.6</ele><time>1970-01-01T00:02:07Z</time></trkpt>
			<trkpt lat="54.953975" lon="22.148438"><ele>23.9</ele><time>1970-01-01T00:02:08Z</time></trkpt>
			<trkpt lat="54.952758" lon="22.151281"><ele>18.5</ele><time>1970-01-01T00:02:09Z</time></trkpt>
			<trkpt lat="54.949120" lon="22.158716"><ele>23.2</ele><time>1970-01-01T00:02:10Z</time></trkpt>
			<trkpt lat="54.948744" lon="22.159247"><ele>26.6</ele><time>1970-01-01T00:02:11Z</time></trkpt>
			<trkpt lat="54.948501" lon="22.159483"><ele>28.2</ele><time>1970-01-01T00:02:12Z</time></trkpt>
			<trkpt lat="54.948159" lon="22.159697"><ele>28.9</ele><time>1970-01-01T00:02:13Z</time></trkpt>
			<trkpt lat="54.947817" lon="22.159992"><ele>29.0</ele><time>1970-01-01T00:02:14Z</time></trkpt>
			<trkpt lat="54.947139" lon="22.161157"><ele>30.4</ele><time>1970-01-01T00:02:15Z</time></trkpt>
			<trkpt lat="54.946748" lon="22.161999"><ele>31.2</ele><time>1970-01-01T00:02:16Z</time></trkpt>
			<trkpt lat="54.946449" lon="22.162868"><ele>33.1</ele><time>1970-01-01T00:02:17Z</time></trkpt>
			<trkpt lat="54.946052" lon="22.164316"><ele>32.9</ele><time>1970-01-01T00:02:18Z</time></trkpt>
			<trkpt lat="54.945756" lon="22.165174"><ele>32.7</ele><time>1970-01-01T00:02:19Z</time></trkpt>
			<trkpt lat="54.944739" lon="22.167481"><ele>32.3</ele><time>1970-01-01T00:02:20Z</time></trkpt>
			<trkpt lat="54.944375" lon="22.168195"><ele>32.8</ele><time>1970-01-01T00:02:21Z</time></trkpt>
			<trkpt lat="54.938607" lon="22.178398"><ele>34.0</ele><time>1970-01-01T00:02:22Z</time></trkpt>
			<trkpt lat="54.926871" lon="22.199491"><ele>35.4</ele><time>1970-01-01T00:02:23Z</time></trkpt>
			<trkpt lat="54.926359" lon="22.200344"><ele>35.5</ele><time>1970-01-01T00:02:24Z</time></trkpt>
			<trkpt lat="54.925573" lon="22.201508"><ele>36.0</ele><time>1970-01-01T00:02:25Z</time></trkpt>
			<trkpt lat="54.925459" lon="22.201604"><ele>36.0</ele><time>1970-01-01T00:02:26Z</time></trkpt>
			<trkpt lat="54.924032" lon="22.202210"><ele>36.2</ele><time>1970-01-01T00:02:27Z</time></trkpt>
			<trkpt lat="54.923507" lon="22.202328"><ele>36.8</ele><time>1970-01-01T00:02:28Z</time></trkpt>
			<trkpt lat="54.922290" lon="22.202457"><ele>34.7</ele><time>1970-01-01T00:02:29Z</time></trkpt>
			<trkpt lat="54.920751" lon="22.203069"><ele>33.3</ele><time>1970-01-01T00:02:30Z</time></trkpt>
			<trkpt lat="54.920391" lon="22.203181"><ele>33.2</ele><time>1970-01-01T00:02:31Z</time></trkpt>
			<trkpt lat="54.912590" lon="22.188231"><ele>28.9</ele><time>1970-01-01T00:02:32Z</time></trkpt>
			<trkpt lat="54.911572" lon="22.185597"><ele>28.3</ele><time>1970-01-01T00:02:33Z</time></trkpt>
			<trkpt lat="54.907896" lon="22.177765"><ele>27.4</ele><time>1970-01-01T00:02:34Z</time></trkpt>
			<trkpt lat="54.901392" lon="22.201400"><ele>23.9</ele><time>1970-01-01T00:02:35Z</time></trkpt>
			<trkpt lat="54.898208" lon="22.213095"><ele>24.0</ele><time>1970-01-01T00:02:36Z</time></trkpt>
			<trkpt lat="54.897194" lon="22.216727"><ele>21.0</ele><time>1970-01-01T00:02:37Z</time></trkpt>
			<trkpt lat="54.896746" lon="22.218170"><ele>21.6</ele><time>1970-01-01T00:02:38Z</time></trkpt>
			<trkpt lat="54.896120" lon="22.219613"><ele>21.5</ele><time>1970-01-01T00:02:39Z</time></trkpt>
			<trkpt lat="54.893297" lon="22.225020"><ele>21.9</ele><time>1970-01-01T00:02:40Z</time></trkpt>
			<trkpt lat="54.892730" lon="22.226484"><ele>22.6</ele><time>1970-01-01T00:02:41Z</time></trkpt>
			<trkpt lat="54.892612" lon="22.226919"><ele>22.9</ele><time>1970-01-01T00:02:42Z</time></trkpt>
			<trkpt lat="54.891894" lon="22.230411"><ele>21.9</ele><time>1970-01-01T00:02:43Z</time></trkpt>
			<trkpt lat="54.889188" lon="22.245045"><ele>23.1</ele><time>1970-01-01T00:02:44Z</time></trkpt>
			<trkpt lat="54.888950" lon="22.246113"><ele>23.3</ele><time>1970-01-01T00:02:45Z</time></trkpt>
			<trkpt lat="54.888740" lon="22.246848"><ele>22.7</ele><time>1970-01-01T00:02:46Z</time></trkpt>
			<trkpt lat="54.874943" lon="22.266283"><ele>33.4</ele><time>1970-01-01T00:02:47Z</time></trkpt>
			<trkpt lat="54.870961" lon="22.271814"><ele>34.0</ele><time>1970-01-01T00:02:48Z</time></trkpt>
			<trkpt lat="54.864840" lon="22.280751"><ele>32.0</ele><time>1970-01-01T00:02:49Z</time></trkpt>
			<trkpt lat="54.864148" lon="22.281432"><ele>32.0</ele><time>1970-01-01T00:02:50Z</time></trkpt>
			<trkpt lat="54.859140" lon="22.284790"><ele>35.2</ele><time>1970-01-01T00:02:51Z</time></trkpt>
			<trkpt lat="54.859606" lon="22.286625"><ele>34.0</ele><time>1970-01-01T00:02:52Z</time></trkpt>
			<trkpt lat="54.859702" lon="22.286829"><ele>33.9</ele><time>1970-01-01T00:02:53Z</time></trkpt>
			<trkpt lat="54.859838" lon="22.287006"><ele>33.9</ele><time>1970-01-01T00:02:54Z</time></trkpt>
			<trkpt lat="54.861820" lon="22.288240"><ele>32.1</ele><time>1970-01-01T00:02:55Z</time></trkpt>
			<trkpt lat="54.862388" lon="22.288760"><ele>32.1</ele><time>1970-01-01T00:02:56Z</time></trkpt>
			<trkpt lat="54.879211" lon="22.305282"><ele>41.1</ele><time>1970-01-01T00:02:57Z</time></trkpt>
			<trkpt lat="54.885547" lon="22.314075"><ele>30.3</ele><time>1970-01-01T00:02:58Z</time></trkpt>
			<trkpt lat="54.886257" lon="22.315019"><ele>30.5</ele><time>1970-01-01T00:02:59Z</time></trkpt>
			<trkpt lat="54.886608" lon="22.315641"><ele>30.9</ele><time>1970-01-01T00:03:00Z</time></trkpt>
			<trkpt lat="54.886840" lon="22.316210"><ele>30.4</ele><time>1970-01-01T00:03:01Z</time></trkpt>
			<trkpt lat="54.887077" lon="22.317293"><ele>30.4</ele><time>1970-01-01T00:03:02Z</time></trkpt>
			<trkpt lat="54.889398" lon="22.334717"><ele>29.4</ele><time>1970-01-01T00:03:03Z</time></trkpt>
			<trkpt lat="54.889663" lon="22.335919"><ele>29.0</ele><time>1970-01-01T00:03:04Z</time></trkpt>
			<trkpt lat="54.890851" lon="22.340639"><ele>28.0</ele><time>1970-01-01T00:03:05Z</time></trkpt>
			<trkpt lat="54.891681" lon="22.344931"><ele>28.0</ele><time>1970-01-01T00:03:06Z</time></trkpt>
			<trkpt lat="54.891730" lon="22.345703"><ele>28.7</ele><time>1970-01-01T00:03:07Z</time></trkpt>
			<trkpt lat="54.891708" lon="22.346712"><ele>29.0</ele><time>1970-01-01T00:03:08Z</time></trkpt>
			<trkpt lat="54.891144" lon="22.360311"><ele>30.4</ele><time>1970-01-01T00:03:09Z</time></trkpt>
			<trkpt lat="54.891224" lon="22.361131"><ele>31.2</ele><time>1970-01-01T00:03:10Z</time></trkpt>
			<trkpt lat="54.891887" lon="22.365713"><ele>33.0</ele><time>1970-01-01T00:03:11Z</time></trkpt>
			<trkpt lat="54.892039" lon="22.366072"><ele>33.1</ele><time>1970-01-01T00:03:12Z</time></trkpt>
			<trkpt lat="54.895633" lon="22.370728"><ele>34.4</ele><time>1970-01-01T00:03:13Z</time></trkpt>
			<trkpt lat="54.898782" lon="22.378523"><ele>36.2</ele><time>1970-01-01T00:03:14Z</time></trkpt>
			<trkpt lat="54.900315" lon="22.384118"><ele>35.1</ele><time>1970-01-01T00:03:15Z</time></trkpt>
			<trkpt lat="54.900892" lon="22.384424"><ele>34.6</ele><time>1970-01-01T00:03:16Z</time></trkpt>
			<trkpt lat="54.901117" lon="22.384595"><ele>34.3</ele><time>1970-01-01T00:03:17Z</time></trkpt>
			<trkpt lat="54.901611" lon="22.385110"><ele>33.7</ele><time>1970-01-01T00:03:18Z</time></trkpt>
			<trkpt lat="54.901904" lon="22.385271"><ele>31.8</ele><time>1970-01-01T00:03:19Z</time></trkpt>
			<trkpt lat="54.903736" lon="22.385706"><ele>25.3</ele><time>1970-01-01T00:03:20Z</time></trkpt>
			<trkpt lat="54.904831" lon="22.386033"><ele>30.2</ele><time>1970-01-01T00:03:21Z</time></trkpt>
			<trkpt lat="54.905429" lon="22.386274"><ele>31.8</ele><time>1970-01-01T00:03:22Z</time></trkpt>
			<trkpt lat="54.906197" lon="22.386521"><ele>31.1</ele><time>1970-01-01T00:03:23Z</time></trkpt>
			<trkpt lat="54.906524" lon="22.386693"><ele>30.4</ele><time>1970-01-01T00:03:24Z</time></trkpt>
			<trkpt lat="54.906579" lon="22.386762"><ele>30.5</ele><time>1970-01-01T00:03:25Z</time></trkpt>
			<trkpt lat="54.906774" lon="22.387245"><ele>31.0</ele><time>1970-01-01T00:03:26Z</time></trkpt>
			<trkpt lat="54.912611" lon="22.404175"><ele>46.0</ele><time>1970-01-01T00:03:27Z</time></trkpt>
			<trkpt lat="54.912741" lon="22.405023"><ele>45.7</ele><time>1970-01-01T00:03:28Z</time></trkpt>
			<trkpt lat="54.912793" lon="22.405795"><ele>45.3</ele><time>1970-01-01T00:03:29Z</time></trkpt>
			<trkpt lat="54.913950" lon="22.427344"><ele>44.7</ele><time>1970-01-01T00:03:30Z</time></trkpt>
			<trkpt lat="54.914841" lon="22.432044"><ele>48.6</ele><time>1970-01-01T00:03:31Z</time></trkpt>
			<trkpt lat="54.915103" lon="22.433653"><ele>51.5</ele><time>1970-01-01T00:03:32Z</time></trkpt>
			<trkpt lat="54.915661" lon="22.435943"><ele>51.5</ele><time>1970-01-01T00:03:33Z</time></trkpt>
			<trkpt lat="54.916022" lon="22.436963"><ele>51.5</ele><time>1970-01-01T00:03:34Z</time></trkpt>
			<trkpt lat="54.916321" lon="22.438014"><ele>51.4</ele><time>1970-01-01T00:03:35Z</time></trkpt>
			<trkpt lat="54.916796" lon="22.439817"><ele>49.6</ele><time>1970-01-01T00:03:36Z</time></trkpt>
			<trkpt lat="54.916857" lon="22.440165"><ele>49.4</ele><time>1970-01-01T00:03:37Z</time></trkpt>
			<trkpt lat="54.916882" lon="22.440552"><ele>49.2</ele><time>1970-01-01T00:03:38Z</time></trkpt>
			<trkpt lat="54.916839" lon="22.441539"><ele>48.9</ele><time>1970-01-01T00:03:39Z</time></trkpt>
			<trkpt lat="54.916284" lon="22.449108"><ele>43.8</ele><time>1970-01-01T00:03:40Z</time></trkpt>
			<trkpt lat="54.916309" lon="22.449537"><ele>43.0</ele><time>1970-01-01T00:03:41Z</time></trkpt>
			<trkpt lat="54.916601" lon="22.450207"><ele>40.2</ele><time>1970-01-01T00:03:42Z</time></trkpt>
			<trkpt lat="54.922052" lon="22.461441"><ele>45.0</ele><time>1970-01-01T00:03:43Z</time></trkpt>
			<trkpt lat="54.927817" lon="22.470592"><ele>35.7</ele><time>1970-01-01T00:03:44Z</time></trkpt>
			<trkpt lat="54.930976" lon="22.475705"><ele>43.2</ele><time>1970-01-01T00:03:45Z</time></trkpt>
			<trkpt lat="54.932009" lon="22.477850"><ele>49.0</ele><time>1970-01-01T00:03:46Z</time></trkpt>
			<trkpt lat="54.934185" lon="22.483075"><ele>46.4</ele><time>1970-01-01T00:03:47Z</time></trkpt>
			<trkpt lat="54.933673" lon="22.483799"><ele>46.0</ele><time>1970-01-01T00:03:48Z</time></trkpt>
			<trkpt lat="54.934687" lon="22.484277"><ele>44.9</ele><time>1970-01-01T00:03:49Z</time></trkpt>
			<trkpt lat="54.935454" lon="22.484905"><ele>44.5</ele><time>1970-01-01T00:03:50Z</time></trkpt>
			<trkpt lat="54.938459" lon="22.487833"><ele>43.4</ele><time>1970-01-01T00:03:51Z</time></trkpt>
			<trkpt lat="54.940407" lon="22.489695"><ele>38.3</ele><time>1970-01-01T00:03:52Z</time></trkpt>
			<trkpt lat="54.941066" lon="22.490274"><ele>39.6</ele><time>1970-01-01T00:03:53Z</time></trkpt>
			<trkpt lat="54.941374" lon="22.490430"><ele>39.7</ele><time>1970-01-01T00:03:54Z</time></trkpt>
			<trkpt lat="54.941843" lon="22.490564"><ele>39.2</ele><time>1970-01-01T00:03:55Z</time></trkpt>
			<trkpt lat="54.942191" lon="22.490591"><ele>39.6</ele><time>1970-01-01T00:03:56Z</time></trkpt>
			<trkpt lat="54.942305" lon="22.491578"><ele>39.3</ele><time>1970-01-01T00:03:57Z</time></trkpt>
			<trkpt lat="54.943633" lon="22.496020"><ele>35.5</ele><time>1970-01-01T00:03:58Z</time></trkpt>
			<trkpt lat="54.943895" lon="22.496846"><ele>34.9</ele><time>1970-01-01T00:03:59Z</time></trkpt>
			<trkpt lat="54.944126" lon="22.497441"><ele>35.7</ele><time>1970-01-01T00:04:00Z</time></trkpt>
			<trkpt lat="54.944594" lon="22.499506"><ele>28.7</ele><time>1970-01-01T00:04:01Z</time></trkpt>
			<trkpt lat="54.944702" lon="22.500161"><ele>27.7</ele><time>1970-01-01T00:04:02Z</time></trkpt>
			<trkpt lat="54.944773" lon="22.501121"><ele>26.7</ele><time>1970-01-01T00:04:03Z</time></trkpt>
			<trkpt lat="54.944764" lon="22.501781"><ele>26.5</ele><time>1970-01-01T00:04:04Z</time></trkpt>
			<trkpt lat="54.944674" lon="22.502312"><ele>26.5</ele><time>1970-01-01T00:04:05Z</time></trkpt>
			<trkpt lat="54.944080" lon="22.503803"><ele>27.8</ele><time>1970-01-01T00:04:06Z</time></trkpt>
			<trkpt lat="54.943362" lon="22.507199"><ele>27.3</ele><time>1970-01-01T00:04:07Z</time></trkpt>
			<trkpt lat="54.940943" lon="22.516994"><ele>33.9</ele><time>1970-01-01T00:04:08Z</time></trkpt>
			<trkpt lat="54.939578" lon="22.523759"><ele>40.0</ele><time>1970-01-01T00:04:09Z</time></trkpt>
			<trkpt lat="54.939328" lon="22.525132"><ele>42.6</ele><time>1970-01-01T00:04:10Z</time></trkpt>
			<trkpt lat="54.939245" lon="22.525808"><ele>43.3</ele><time>1970-01-01T00:04:11Z</time></trkpt>
			<trkpt lat="54.939149" lon="22.527053"><ele>43.4</ele><time>1970-01-01T00:04:12Z</time></trkpt>
			<trkpt lat="54.939319" lon="22.545152"><ele>48.3</ele><time>1970-01-01T00:04:13Z</time></trkpt>
			<trkpt lat="54.939328" lon="22.546869"><ele>47.8</ele><time>1970-01-01T00:04:14Z</time></trkpt>
			<trkpt lat="54.939294" lon="22.547733"><ele>47.4</ele><time>1970-01-01T00:04:15Z</time></trkpt>
			<trkpt lat="54.939119" lon="22.548628"><ele>44.7</ele><time>1970-01-01T00:04:16Z</time></trkpt>
			<trkpt lat="54.937045" lon="22.556267"><ele>29.0</ele><time>1970-01-01T00:04:17Z</time></trkpt>
			<trkpt lat="54.936601" lon="22.558064"><ele>28.2</ele><time>1970-01-01T00:04:18Z</time></trkpt>
			<trkpt lat="54.935797" lon="22.560586"><ele>25.7</ele><time>1970-01-01T00:04:19Z</time></trkpt>
			<trkpt lat="54.935501" lon="22.561857"><ele>26.9</ele><time>1970-01-01T00:04:20Z</time></trkpt>
			<trkpt lat="54.933954" lon="22.567919"><ele>30.6</ele><time>1970-01-01T00:04:21Z</time></trkpt>
			<trkpt lat="54.932286" lon="22.574227"><ele>30.0</ele><time>1970-01-01T00:04:22Z</time></trkpt>
			<trkpt lat="54.924824" lon="22.592783"><ele>32.7</ele><time>1970-01-01T00:04:23Z</time></trkpt>
			<trkpt lat="54.924423" lon="22.593593"><ele>32.4</ele><time>1970-01-01T00:04:24Z</time></trkpt>
			<trkpt lat="54.920606" lon="22.600486"><ele>30.9</ele><time>1970-01-01T00:04:25Z</time></trkpt>
			<trkpt lat="54.914751" lon="22.613956"><ele>34.3</ele><time>1970-01-01T00:04:26Z</time></trkpt>
			<trkpt lat="54.903150" lon="22.634883"><ele>34.9</ele><time>1970-01-01T00:04:27Z</time></trkpt>
			<trkpt lat="54.900599" lon="22.630865"><ele>34.0</ele><time>1970-01-01T00:04:28Z</time></trkpt>
			<trkpt lat="54.900266" lon="22.630500"><ele>33.9</ele><time>1970-01-01T00:04:29Z</time></trkpt>
			<trkpt lat="54.899883" lon="22.630189"><ele>34.1</ele><time>1970-01-01T00:04:30Z</time></trkpt>
			<trkpt lat="54.899507" lon="22.630012"><ele>34.6</ele><time>1970-01-01T00:04:31Z</time></trkpt>
			<trkpt lat="54.899137" lon="22.629915"><ele>34.9</ele><time>1970-01-01T00:04:32Z</time></trkpt>
			<trkpt lat="54.898754" lon="22.629921"><ele>34.4</ele><time>1970-01-01T00:04:33Z</time></trkpt>
			<trkpt lat="54.898511" lon="22.629974"><ele>34.2</ele><time>1970-01-01T00:04:34Z</time></trkpt>
			<trkpt lat="54.889120" lon="22.633467"><ele>39.0</ele><time>1970-01-01T00:04:35Z</time></trkpt>
			<trkpt lat="54.888540" lon="22.633595"><ele>39.2</ele><time>1970-01-01T00:04:36Z</time></trkpt>
			<trkpt lat="54.887556" lon="22.633494"><ele>40.9</ele><time>1970-01-01T00:04:37Z</time></trkpt>
			<trkpt lat="54.886908" lon="22.633472"><ele>40.4</ele><time>1970-01-01T00:04:38Z</time></trkpt>
			<trkpt lat="54.886392" lon="22.633687"><ele>41.1</ele><time>1970-01-01T00:04:39Z</time></trkpt>
			<trkpt lat="54.884862" lon="22.634684"><ele>41.5</ele><time>1970-01-01T00:04:40Z</time></trkpt>
			<trkpt lat="54.884748" lon="22.634792"><ele>41.4</ele><time>1970-01-01T00:04:41Z</time></trkpt>
			<trkpt lat="54.884516" lon="22.634824"><ele>41.2</ele><time>1970-01-01T00:04:42Z</time></trkpt>
			<trkpt lat="54.884084" lon="22.634754"><ele>40.6</ele><time>1970-01-01T00:04:43Z</time></trkpt>
			<trkpt lat="54.881470" lon="22.635264"><ele>39.3</ele><time>1970-01-01T00:04:44Z</time></trkpt>
			<trkpt lat="54.881091" lon="22.635253"><ele>39.3</ele><time>1970-01-01T00:04:45Z</time></trkpt>
			<trkpt lat="54.880035" lon="22.635114"><ele>38.1</ele><time>1970-01-01T00:04:46Z</time></trkpt>
			<trkpt lat="54.871437" lon="22.633848"><ele>38.8</ele><time>1970-01-01T00:04:47Z</time></trkpt>
			<trkpt lat="54.868325" lon="22.632721"><ele>39.3</ele><time>1970-01-01T00:04:48Z</time></trkpt>
			<trkpt lat="54.865102" lon="22.631750"><ele>37.2</ele><time>1970-01-01T00:04:49Z</time></trkpt>
			<trkpt lat="54.864821" lon="22.631637"><ele>37.0</ele><time>1970-01-01T00:04:50Z</time></trkpt>
			<trkpt lat="54.864516" lon="22.631455"><ele>37.0</ele><time>1970-01-01T00:04:51Z</time></trkpt>
			<trkpt lat="54.864259" lon="22.631235"><ele>37.0</ele><time>1970-01-01T00:04:52Z</time></trkpt>
			<trkpt lat="54.863682" lon="22.630463"><ele>37.6</ele><time>1970-01-01T00:04:53Z</time></trkpt>
			<trkpt lat="54.860588" lon="22.623779"><ele>39.4</ele><time>1970-01-01T00:04:54Z</time></trkpt>
			<trkpt lat="54.859437" lon="22.621365"><ele>39.1</ele><time>1970-01-01T00:04:55Z</time></trkpt>
			<trkpt lat="54.858924" lon="22.620673"><ele>38.7</ele><time>1970-01-01T00:04:56Z</time></trkpt>
			<trkpt lat="54.849777" lon="22.610040"><ele>42.3</ele><time>1970-01-01T00:04:57Z</time></trkpt>
			<trkpt lat="54.845676" lon="22.603233"><ele>43.3</ele><time>1970-01-01T00:04:58Z</time></trkpt>
			<trkpt lat="54.845435" lon="22.602895"><ele>44.0</ele><time>1970-01-01T00:04:59Z</time></trkpt>
			<trkpt lat="54.845138" lon="22.602594"><ele>44.7</ele><time>1970-01-01T00:05:00Z</time></trkpt>
			<trkpt lat="54.839535" lon="22.598700"><ele>47.0</ele><time>1970-01-01T00:05:01Z</time></trkpt>
			<trkpt lat="54.837724" lon="22.597595"><ele>46.7</ele><time>1970-01-01T00:05:02Z</time></trkpt>
			<trkpt lat="54.838240" lon="22.594194"><ele>41.0</ele><time>1970-01-01T00:05:03Z</time></trkpt>
			<trkpt lat="54.838240" lon="22.593845"><ele>40.2</ele><time>1970-01-01T00:05:04Z</time></trkpt>
			<trkpt lat="54.838006" lon="22.592440"><ele>38.7</ele><time>1970-01-01T00:05:05Z</time></trkpt>
			<trkpt lat="54.835960" lon="22.581448"><ele>42.3</ele><time>1970-01-01T00:05:06Z</time></trkpt>
			<trkpt lat="54.835590" lon="22.580150"><ele>42.4</ele><time>1970-01-01T00:05:07Z</time></trkpt>
			<trkpt lat="54.833501" lon="22.573605"><ele>44.7</ele><time>1970-01-01T00:05:08Z</time></trkpt>
			<trkpt lat="54.832441" lon="22.572500"><ele>44.9</ele><time>1970-01-01T00:05:09Z</time></trkpt>
			<trkpt lat="54.829432" lon="22.569517"><ele>43.5</ele><time>1970-01-01T00:05:10Z</time></trkpt>
			<trkpt lat="54.823329" lon="22.557818"><ele>43.0</ele><time>1970-01-01T00:05:11Z</time></trkpt>
			<trkpt lat="54.821783" lon="22.555479"><ele>42.9</ele><time>1970-01-01T00:05:12Z</time></trkpt>
			<trkpt lat="54.821675" lon="22.555447"><ele>42.7</ele><time>1970-01-01T00:05:13Z</time></trkpt>
			<trkpt lat="54.821583" lon="22.555463"><ele>42.6</ele><time>1970-01-01T00:05:14Z</time></trkpt>
			<trkpt lat="54.821493" lon="22.555527"><ele>42.6</ele><time>1970-01-01T00:05:15Z</time></trkpt>
			<trkpt lat="54.821070" lon="22.556176"><ele>42.1</ele><time>1970-01-01T00:05:16Z</time></trkpt>
			<trkpt lat="54.820949" lon="22.556203"><ele>41.9</ele><time>1970-01-01T00:05:17Z</time></trkpt>
			<trkpt lat="54.820776" lon="22.556171"><ele>41.7</ele><time>1970-01-01T00:05:18Z</time></trkpt>
			<trkpt lat="54.820532" lon="22.556026"><ele>42.1</ele><time>1970-01-01T00:05:19Z</time></trkpt>
			<trkpt lat="54.819333" lon="22.554846"><ele>42.5</ele><time>1970-01-01T00:05:20Z</time></trkpt>
			<trkpt lat="54.818962" lon="22.554540"><ele>42.6</ele><time>1970-01-01T00:05:21Z</time></trkpt>
			<trkpt lat="54.812718" lon="22.551890"><ele>42.5</ele><time>1970-01-01T00:05:22Z</time></trkpt>
			<trkpt lat="54.808059" lon="22.550468"><ele>45.7</ele><time>1970-01-01T00:05:23Z</time></trkpt>
			<trkpt lat="54.807830" lon="22.550308"><ele>45.8</ele><time>1970-01-01T00:05:24Z</time></trkpt>
			<trkpt lat="54.807694" lon="22.550098"><ele>45.8</ele><time>1970-01-01T00:05:25Z</time></trkpt>
			<trkpt lat="54.807243" lon="22.549154"><ele>46.3</ele><time>1970-01-01T00:05:26Z</time></trkpt>
			<trkpt lat="54.806968" lon="22.548661"><ele>46.4</ele><time>1970-01-01T00:05:27Z</time></trkpt>
			<trkpt lat="54.806414" lon="22.547910"><ele>46.8</ele><time>1970-01-01T00:05:28Z</time></trkpt>
			<trkpt lat="54.805910" lon="22.547320"><ele>47.6</ele><time>1970-01-01T00:05:29Z</time></trkpt>
			<trkpt lat="54.805545" lon="22.546960"><ele>46.7</ele><time>1970-01-01T00:05:30Z</time></trkpt>
			<trkpt lat="54.804522" lon="22.546113"><ele>42.4</ele><time>1970-01-01T00:05:31Z</time></trkpt>
			<trkpt lat="54.804256" lon="22.545705"><ele>41.8</ele><time>1970-01-01T00:05:32Z</time></trkpt>
			<trkpt lat="54.802583" lon="22.542803"><ele>40.3</ele><time>1970-01-01T00:05:33Z</time></trkpt>
			<trkpt lat="54.802429" lon="22.542352"><ele>40.1</ele><time>1970-01-01T00:05:34Z</time></trkpt>
			<trkpt lat="54.801480" lon="22.536741"><ele>49.7</ele><time>1970-01-01T00:05:35Z</time></trkpt>
			<trkpt lat="54.799182" lon="22.520412"><ele>57.0</ele><time>1970-01-01T00:05:36Z</time></trkpt>
			<trkpt lat="54.798941" lon="22.519307"><ele>58.1</ele><time>1970-01-01T00:05:37Z</time></trkpt>
			<trkpt lat="54.798740" lon="22.518802"><ele>58.8</ele><time>1970-01-01T00:05:38Z</time></trkpt>
			<trkpt lat="54.798056" lon="22.514505"><ele>58.4</ele><time>1970-01-01T00:05:39Z</time></trkpt>
			<trkpt lat="54.797893" lon="22.513926"><ele>58.9</ele><time>1970-01-01T00:05:40Z</time></trkpt>
			<trkpt lat="54.797506" lon="22.513095"><ele>58.4</ele><time>1970-01-01T00:05:41Z</time></trkpt>
			<trkpt lat="54.796588" lon="22.512891"><ele>55.3</ele><time>1970-01-01T00:05:42Z</time></trkpt>
			<trkpt lat="54.796359" lon="22.512794"><ele>55.0</ele><time>1970-01-01T00:05:43Z</time></trkpt>
			<trkpt lat="54.783792" lon="22.506416"><ele>48.3</ele><time>1970-01-01T00:05:44Z</time></trkpt>
			<trkpt lat="54.782428" lon="22.505751"><ele>49.1</ele><time>1970-01-01T00:05:45Z</time></trkpt>
			<trkpt lat="54.782146" lon="22.505643"><ele>49.4</ele><time>1970-01-01T00:05:46Z</time></trkpt>
			<trkpt lat="54.781902" lon="22.505584"><ele>49.7</ele><time>1970-01-01T00:05:47Z</time></trkpt>
			<trkpt lat="54.781651" lon="22.505568"><ele>50.0</ele><time>1970-01-01T00:05:48Z</time></trkpt>
			<trkpt lat="54.781023" lon="22.505611"><ele>50.6</ele><time>1970-01-01T00:05:49Z</time></trkpt>
			<trkpt lat="54.776119" lon="22.506539"><ele>53.2</ele><time>1970-01-01T00:05:50Z</time></trkpt>
			<trkpt lat="54.775770" lon="22.506561"><ele>52.9</ele><time>1970-01-01T00:05:51Z</time></trkpt>
			<trkpt lat="54.775559" lon="22.506528"><ele>52.9</ele><time>1970-01-01T00:05:52Z</time></trkpt>
			<trkpt lat="54.773632" lon="22.505971"><ele>56.3</ele><time>1970-01-01T00:05:53Z</time></trkpt>
			<trkpt lat="54.773257" lon="22.505831"><ele>58.5</ele><time>1970-01-01T00:05:54Z</time></trkpt>
			<trkpt lat="54.771577" lon="22.504560"><ele>68.1</ele><time>1970-01-01T00:05:55Z</time></trkpt>
			<trkpt lat="54.771292" lon="22.504377"><ele>68.5</ele><time>1970-01-01T00:05:56Z</time></trkpt>
			<trkpt lat="54.770234" lon="22.503932"><ele>72.2</ele><time>1970-01-01T00:05:57Z</time></trkpt>
			<trkpt lat="54.770033" lon="22.503996"><ele>73.0</ele><time>1970-01-01T00:05:58Z</time></trkpt>
			<trkpt lat="54.769801" lon="22.504125"><ele>74.1</ele><time>1970-01-01T00:05:59Z</time></trkpt>
			<trkpt lat="54.769290" lon="22.503991"><ele>77.4</ele><time>1970-01-01T00:06:00Z</time></trkpt>
			<trkpt lat="54.767758" lon="22.502999"><ele>80.5</ele><time>1970-01-01T00:06:01Z</time></trkpt>
			<trkpt lat="54.765434" lon="22.501910"><ele>78.7</ele><time>1970-01-01T00:06:02Z</time></trkpt>
			<trkpt lat="54.763952" lon="22.501304"><ele>77.9</ele><time>1970-01-01T00:06:03Z</time></trkpt>
			<trkpt lat="54.763042" lon="22.501175"><ele>77.0</ele><time>1970-01-01T00:06:04Z</time></trkpt>
			<trkpt lat="54.761052" lon="22.500971"><ele>74.3</ele><time>1970-01-01T00:06:05Z</time></trkpt>
			<trkpt lat="54.758009" lon="22.500708"><ele>65.9</ele><time>1970-01-01T00:06:06Z</time></trkpt>
			<trkpt lat="54.749050" lon="22.499785"><ele>60.6</ele><time>1970-01-01T00:06:07Z</time></trkpt>
			<trkpt lat="54.740355" lon="22.498841"><ele>60.6</ele><time>1970-01-01T00:06:08Z</time></trkpt>
			<trkpt lat="54.739383" lon="22.498713"><ele>59.8</ele><time>1970-01-01T00:06:09Z</time></trkpt>
			<trkpt lat="54.738974" lon="22.498595"><ele>59.5</ele><time>1970-01-01T00:06:10Z</time></trkpt>
			<trkpt lat="54.738738" lon="22.498573"><ele>59.2</ele><time>1970-01-01T00:06:11Z</time></trkpt>
			<trkpt lat="54.738484" lon="22.498745"><ele>58.7</ele><time>1970-01-01T00:06:12Z</time></trkpt>
			<trkpt lat="54.738206" lon="22.499040"><ele>58.3</ele><time>1970-01-01T00:06:13Z</time></trkpt>
			<trkpt lat="54.737407" lon="22.500413"><ele>58.0</ele><time>1970-01-01T00:06:14Z</time></trkpt>
			<trkpt lat="54.728576" lon="22.516147"><ele>60.0</ele><time>1970-01-01T00:06:15Z</time></trkpt>
			<trkpt lat="54.718786" lon="22.529928"><ele>54.9</ele><time>1970-01-01T00:06:16Z</time></trkpt>
			<trkpt lat="54.718250" lon="22.530642"><ele>55.6</ele><time>1970-01-01T00:06:17Z</time></trkpt>
			<trkpt lat="54.714414" lon="22.532621"><ele>60.3</ele><time>1970-01-01T00:06:18Z</time></trkpt>
			<trkpt lat="54.714048" lon="22.532873"><ele>60.6</ele><time>1970-01-01T00:06:19Z</time></trkpt>
			<trkpt lat="54.713912" lon="22.533115"><ele>60.5</ele><time>1970-01-01T00:06:20Z</time></trkpt>
			<trkpt lat="54.713587" lon="22.534214"><ele>60.0</ele><time>1970-01-01T00:06:21Z</time></trkpt>
			<trkpt lat="54.713026" lon="22.536746"><ele>59.2</ele><time>1970-01-01T00:06:22Z</time></trkpt>
			<trkpt lat="54.712893" lon="22.537025"><ele>58.9</ele><time>1970-01-01T00:06:23Z</time></trkpt>
			<trkpt lat="54.712778" lon="22.537154"><ele>58.9</ele><time>1970-01-01T00:06:24Z</time></trkpt>
			<trkpt lat="54.712620" lon="22.537267"><ele>59.1</ele><time>1970-01-01T00:06:25Z</time></trkpt>
			<trkpt lat="54.711439" lon="22.537594"><ele>58.7</ele><time>1970-01-01T00:06:26Z</time></trkpt>
			<trkpt lat="54.711086" lon="22.537841"><ele>58.3</ele><time>1970-01-01T00:06:27Z</time></trkpt>
			<trkpt lat="54.699581" lon="22.548510"><ele>53.5</ele><time>1970-01-01T00:06:28Z</time></trkpt>
			<trkpt lat="54.696019" lon="22.551869"><ele>50.0</ele><time>1970-01-01T00:06:29Z</time></trkpt>
			<trkpt lat="54.695036" lon="22.552271"><ele>49.7</ele><time>1970-01-01T00:06:30Z</time></trkpt>
			<trkpt lat="54.692233" lon="22.552995"><ele>55.2</ele><time>1970-01-01T00:06:31Z</time></trkpt>
			<trkpt lat="54.689840" lon="22.553440"><ele>56.7</ele><time>1970-01-01T00:06:32Z</time></trkpt>
			<trkpt lat="54.687089" lon="22.553886"><ele>54.5</ele><time>1970-01-01T00:06:33Z</time></trkpt>
			<trkpt lat="54.686705" lon="22.553864"><ele>54.1</ele><time>1970-01-01T00:06:34Z</time></trkpt>
			<trkpt lat="54.686351" lon="22.553617"><ele>54.4</ele><time>1970-01-01T00:06:35Z</time></trkpt>
			<trkpt lat="54.681374" lon="22.549229"><ele>51.4</ele><time>1970-01-01T00:06:36Z</time></trkpt>
			<trkpt lat="54.680881" lon="22.548891"><ele>51.7</ele><time>1970-01-01T00:06:37Z</time></trkpt>
			<trkpt lat="54.680630" lon="22.548881"><ele>51.7</ele><time>1970-01-01T00:06:38Z</time></trkpt>
			<trkpt lat="54.677181" lon="22.549503"><ele>54.9</ele><time>1970-01-01T00:06:39Z</time></trkpt>
			<trkpt lat="54.676861" lon="22.549589"><ele>55.3</ele><time>1970-01-01T00:06:40Z</time></trkpt>
			<trkpt lat="54.676424" lon="22.549782"><ele>55.7</ele><time>1970-01-01T00:06:41Z</time></trkpt>
			<trkpt lat="54.676005" lon="22.550039"><ele>55.9</ele><time>1970-01-01T00:06:42Z</time></trkpt>
			<trkpt lat="54.667645" lon="22.558172"><ele>50.2</ele><time>1970-01-01T00:06:43Z</time></trkpt>
			<trkpt lat="54.667382" lon="22.558397"><ele>50.9</ele><time>1970-01-01T00:06:44Z</time></trkpt>
			<trkpt lat="54.660311" lon="22.561004"><ele>48.9</ele><time>1970-01-01T00:06:45Z</time></trkpt>
			<trkpt lat="54.660022" lon="22.560999"><ele>49.0</ele><time>1970-01-01T00:06:46Z</time></trkpt>
			<trkpt lat="54.659678" lon="22.560892"><ele>49.7</ele><time>1970-01-01T00:06:47Z</time></trkpt>
			<trkpt lat="54.657766" lon="22.560044"><ele>47.8</ele><time>1970-01-01T00:06:48Z</time></trkpt>
			<trkpt lat="54.657326" lon="22.559947"><ele>46.8</ele><time>1970-01-01T00:06:49Z</time></trkpt>
			<trkpt lat="54.657028" lon="22.559904"><ele>46.5</ele><time>1970-01-01T00:06:50Z</time></trkpt>
			<trkpt lat="54.656236" lon="22.560039"><ele>47.6</ele><time>1970-01-01T00:06:51Z</time></trkpt>
			<trkpt lat="54.655442" lon="22.559985"><ele>49.4</ele><time>1970-01-01T00:06:52Z</time></trkpt>
			<trkpt lat="54.650722" lon="22.559534"><ele>52.0</ele><time>1970-01-01T00:06:53Z</time></trkpt>
			<trkpt lat="54.649846" lon="22.559422"><ele>51.9</ele><time>1970-01-01T00:06:54Z</time></trkpt>
			<trkpt lat="54.649713" lon="22.559368"><ele>51.9</ele><time>1970-01-01T00:06:55Z</time></trkpt>
			<trkpt lat="54.649341" lon="22.559089"><ele>52.2</ele><time>1970-01-01T00:06:56Z</time></trkpt>
			<trkpt lat="54.648161" lon="22.558016"><ele>54.1</ele><time>1970-01-01T00:06:57Z</time></trkpt>
			<trkpt lat="54.647978" lon="22.557957"><ele>54.7</ele><time>1970-01-01T00:06:58Z</time></trkpt>
			<trkpt lat="54.647832" lon="22.557957"><ele>55.1</ele><time>1970-01-01T00:06:59Z</time></trkpt>
			<trkpt lat="54.645402" lon="22.558960"><ele>55.3</ele><time>1970-01-01T00:07:00Z</time></trkpt>
			<trkpt lat="54.645200" lon="22.558971"><ele>55.8</ele><time>1970-01-01T00:07:01Z</time></trkpt>
			<trkpt lat="54.644967" lon="22.558864"><ele>56.4</ele><time>1970-01-01T00:07:02Z</time></trkpt>
			<trkpt lat="54.644039" lon="22.558241"><ele>58.3</ele><time>1970-01-01T00:07:03Z</time></trkpt>
			<trkpt lat="54.643797" lon="22.558113"><ele>58.8</ele><time>1970-01-01T00:07:04Z</time></trkpt>
			<trkpt lat="54.643142" lon="22.557893"><ele>59.4</ele><time>1970-01-01T00:07:05Z</time></trkpt>
			<trkpt lat="54.642223" lon="22.557464"><ele>58.7</ele><time>1970-01-01T00:07:06Z</time></trkpt>
			<trkpt lat="54.641996" lon="22.557464"><ele>58.4</ele><time>1970-01-01T00:07:07Z</time></trkpt>
			<trkpt lat="54.641869" lon="22.557533"><ele>58.3</ele><time>1970-01-01T00:07:08Z</time></trkpt>
			<trkpt lat="54.641618" lon="22.557786"><ele>58.0</ele><time>1970-01-01T00:07:09Z</time></trkpt>
			<trkpt lat="54.641137" lon="22.558386"><ele>59.3</ele><time>1970-01-01T00:07:10Z</time></trkpt>
			<trkpt lat="54.637982" lon="22.562565"><ele>63.6</ele><time>1970-01-01T00:07:11Z</time></trkpt>
			<trkpt lat="54.634930" lon="22.565886"><ele>66.2</ele><time>1970-01-01T00:07:12Z</time></trkpt>
			<trkpt lat="54.634629" lon="22.566170"><ele>67.1</ele><time>1970-01-01T00:07:13Z</time></trkpt>
			<trkpt lat="54.634530" lon="22.564909"><ele>65.6</ele><time>1970-01-01T00:07:14Z</time></trkpt>
			<trkpt lat="54.633738" lon="22.561551"><ele>65.5</ele><time>1970-01-01T00:07:15Z</time></trkpt>
			<trkpt lat="54.633648" lon="22.560892"><ele>65.2</ele><time>1970-01-01T00:07:16Z</time></trkpt>
			<trkpt lat="54.633508" lon="22.558365"><ele>63.7</ele><time>1970-01-01T00:07:17Z</time></trkpt>
			<trkpt lat="54.633539" lon="22.557893"><ele>63.6</ele><time>1970-01-01T00:07:18Z</time></trkpt>
			<trkpt lat="54.633636" lon="22.557421"><ele>63.5</ele><time>1970-01-01T00:07:19Z</time></trkpt>
			<trkpt lat="54.634372" lon="22.554819"><ele>62.5</ele><time>1970-01-01T00:07:20Z</time></trkpt>
			<trkpt lat="54.634545" lon="22.554047"><ele>61.5</ele><time>1970-01-01T00:07:21Z</time></trkpt>
			<trkpt lat="54.634542" lon="22.553832"><ele>61.3</ele><time>1970-01-01T00:07:22Z</time></trkpt>
			<trkpt lat="54.634446" lon="22.553371"><ele>61.0</ele><time>1970-01-01T00:07:23Z</time></trkpt>
			<trkpt lat="54.634073" lon="22.552373"><ele>58.2</ele><time>1970-01-01T00:07:24Z</time></trkpt>
			<trkpt lat="54.633990" lon="22.552008"><ele>56.9</ele><time>1970-01-01T00:07:25Z</time></trkpt>
			<trkpt lat="54.633943" lon="22.551686"><ele>56.0</ele><time>1970-01-01T00:07:26Z</time></trkpt>
			<trkpt lat="54.633735" lon="22.548264"><ele>52.2</ele><time>1970-01-01T00:07:27Z</time></trkpt>
			<trkpt lat="54.633673" lon="22.547663"><ele>53.6</ele><time>1970-01-01T00:07:28Z</time></trkpt>
			<trkpt lat="54.633251" lon="22.545458"><ele>59.1</ele><time>1970-01-01T00:07:29Z</time></trkpt>
			<trkpt lat="54.633220" lon="22.545163"><ele>59.1</ele><time>1970-01-01T00:07:30Z</time></trkpt>
			<trkpt lat="54.633220" lon="22.544696"><ele>59.1</ele><time>1970-01-01T00:07:31Z</time></trkpt>
			<trkpt lat="54.633260" lon="22.544299"><ele>59.0</ele><time>1970-01-01T00:07:32Z</time></trkpt>
			<trkpt lat="54.634204" lon="22.536086"><ele>51.0</ele><time>1970-01-01T00:07:33Z</time></trkpt>
			<trkpt lat="54.634167" lon="22.535582"><ele>51.3</ele><time>1970-01-01T00:07:34Z</time></trkpt>
			<trkpt lat="54.634086" lon="22.535153"><ele>51.9</ele><time>1970-01-01T00:07:35Z</time></trkpt>
			<trkpt lat="54.633959" lon="22.534724"><ele>52.3</ele><time>1970-01-01T00:07:36Z</time></trkpt>
			<trkpt lat="54.630819" lon="22.524623"><ele>56.5</ele><time>1970-01-01T00:07:37Z</time></trkpt>
			<trkpt lat="54.629857" lon="22.521420"><ele>53.6</ele><time>1970-01-01T00:07:38Z</time></trkpt>
			<trkpt lat="54.626515" lon="22.506169"><ele>54.1</ele><time>1970-01-01T00:07:39Z</time></trkpt>
			<trkpt lat="54.625587" lon="22.501577"><ele>54.4</ele><time>1970-01-01T00:07:40Z</time></trkpt>
			<trkpt lat="54.624869" lon="22.497779"><ele>54.7</ele><time>1970-01-01T00:07:41Z</time></trkpt>
			<trkpt lat="54.624817" lon="22.497382"><ele>54.6</ele><time>1970-01-01T00:07:42Z</time></trkpt>
			<trkpt lat="54.624755" lon="22.495344"><ele>55.0</ele><time>1970-01-01T00:07:43Z</time></trkpt>
			<trkpt lat="54.624633" lon="22.494829"><ele>54.8</ele><time>1970-01-01T00:07:44Z</time></trkpt>
			<trkpt lat="54.619798" lon="22.484180"><ele>51.0</ele><time>1970-01-01T00:07:45Z</time></trkpt>
			<trkpt lat="54.617692" lon="22.479427"><ele>52.3</ele><time>1970-01-01T00:07:46Z</time></trkpt>
			<trkpt lat="54.617276" lon="22.478183"><ele>52.4</ele><time>1970-01-01T00:07:47Z</time></trkpt>
			<trkpt lat="54.617161" lon="22.477727"><ele>52.8</ele><time>1970-01-01T00:07:48Z</time></trkpt>
			<trkpt lat="54.616869" lon="22.476102"><ele>52.1</ele><time>1970-01-01T00:07:49Z</time></trkpt>
			<trkpt lat="54.612256" lon="22.446082"><ele>54.0</ele><time>1970-01-01T00:07:50Z</time></trkpt>
			<trkpt lat="54.612144" lon="22.444194"><ele>55.5</ele><time>1970-01-01T00:07:51Z</time></trkpt>
			<trkpt lat="54.612113" lon="22.442703"><ele>54.6</ele><time>1970-01-01T00:07:52Z</time></trkpt>
			<trkpt lat="54.611967" lon="22.427693"><ele>51.5</ele><time>1970-01-01T00:07:53Z</time></trkpt>
			<trkpt lat="54.611933" lon="22.420312"><ele>53.9</ele><time>1970-01-01T00:07:54Z</time></trkpt>
			<trkpt lat="54.611998" lon="22.419373"><ele>52.6</ele><time>1970-01-01T00:07:55Z</time></trkpt>
			<trkpt lat="54.612113" lon="22.418423"><ele>50.6</ele><time>1970-01-01T00:07:56Z</time></trkpt>
			<trkpt lat="54.613992" lon="22.406375"><ele>51.6</ele><time>1970-01-01T00:07:57Z</time></trkpt>
			<trkpt lat="54.614098" lon="22.404937"><ele>52.8</ele><time>1970-01-01T00:07:58Z</time></trkpt>
			<trkpt lat="54.614079" lon="22.403955"><ele>53.7</ele><time>1970-01-01T00:07:59Z</time></trkpt>
			<trkpt lat="54.613408" lon="22.393731"><ele>51.6</ele><time>1970-01-01T00:08:00Z</time></trkpt>
			<trkpt lat="54.612989" lon="22.386746"><ele>52.3</ele><time>1970-01-01T00:08:01Z</time></trkpt>
			<trkpt lat="54.612868" lon="22.385470"><ele>53.1</ele><time>1970-01-01T00:08:02Z</time></trkpt>
			<trkpt lat="54.610848" lon="22.355225"><ele>50.3</ele><time>1970-01-01T00:08:03Z</time></trkpt>
			<trkpt lat="54.609724" lon="22.338107"><ele>52.2</ele><time>1970-01-01T00:08:04Z</time></trkpt>
			<trkpt lat="54.609700" lon="22.338110"><ele>52.2</ele><time>1970-01-01T00:08:05Z</time></trkpt>
			<trkpt lat="54.609560" lon="22.335940"><ele>53.0</ele><time>1970-01-01T00:08:06Z</time></trkpt>
			<trkpt lat="54.609490" lon="22.334900"><ele>53.8</ele><time>1970-01-01T00:08:07Z</time></trkpt>
			<trkpt lat="54.609380" lon="22.333660"><ele>54.5</ele><time>1970-01-01T00:08:08Z</time></trkpt>
			<trkpt lat="54.609110" lon="22.330410"><ele>53.0</ele><time>1970-01-01T00:08:09Z</time></trkpt>
			<trkpt lat="54.607490" lon="22.310460"><ele>59.4</ele><time>1970-01-01T00:08:10Z</time></trkpt>
			<trkpt lat="54.605800" lon="22.289830"><ele>56.8</ele><time>1970-01-01T00:08:11Z</time></trkpt>
			<trkpt lat="54.605040" lon="22.280570"><ele>59.7</ele><time>1970-01-01T00:08:12Z</time></trkpt>
			<trkpt lat="54.604960" lon="22.277510"><ele>59.9</ele><time>1970-01-01T00:08:13Z</time></trkpt>
			<trkpt lat="54.604960" lon="22.277000"><ele>60.5</ele><time>1970-01-01T00:08:14Z</time></trkpt>
			<trkpt lat="54.604950" lon="22.275930"><ele>61.7</ele><time>1970-01-01T00:08:15Z</time></trkpt>
			<trkpt lat="54.604960" lon="22.274830"><ele>61.5</ele><time>1970-01-01T00:08:16Z</time></trkpt>
			<trkpt lat="54.604980" lon="22.273230"><ele>60.0</ele><time>1970-01-01T00:08:17Z</time></trkpt>
			<trkpt lat="54.605060" lon="22.271530"><ele>61.3</ele><time>1970-01-01T00:08:18Z</time></trkpt>
			<trkpt lat="54.605180" lon="22.269710"><ele>62.7</ele><time>1970-01-01T00:08:19Z</time></trkpt>
			<trkpt lat="54.605360" lon="22.267660"><ele>63.3</ele><time>1970-01-01T00:08:20Z</time></trkpt>
			<trkpt lat="54.605430" lon="22.266750"><ele>63.1</ele><time>1970-01-01T00:08:21Z</time></trkpt>
			<trkpt lat="54.605670" lon="22.264770"><ele>63.6</ele><time>1970-01-01T00:08:22Z</time></trkpt>
			<trkpt lat="54.605720" lon="22.264390"><ele>63.3</ele><time>1970-01-01T00:08:23Z</time></trkpt>
			<trkpt lat="54.605880" lon="22.263140"><ele>62.9</ele><time>1970-01-01T00:08:24Z</time></trkpt>
			<trkpt lat="54.606070" lon="22.262080"><ele>62.2</ele><time>1970-01-01T00:08:25Z</time></trkpt>
			<trkpt lat="54.606260" lon="22.260830"><ele>61.0</ele><time>1970-01-01T00:08:26Z</time></trkpt>
			<trkpt lat="54.606470" lon="22.259640"><ele>60.0</ele><time>1970-01-01T00:08:27Z</time></trkpt>
			<trkpt lat="54.606490" lon="22.259530"><ele>60.1</ele><time>1970-01-01T00:08:28Z</time></trkpt>
			<trkpt lat="54.606490" lon="22.259530"><ele>60.1</ele><time>1970-01-01T00:08:29Z</time></trkpt>
			<trkpt lat="54.606540" lon="22.259220"><ele>60.2</ele><time>1970-01-01T00:08:30Z</time></trkpt>
			<trkpt lat="54.606760" lon="22.258120"><ele>59.6</ele><time>1970-01-01T00:08:31Z</time></trkpt>
			<trkpt lat="54.606880" lon="22.257530"><ele>58.8</ele><time>1970-01-01T00:08:32Z</time></trkpt>
			<trkpt lat="54.607220" lon="22.256110"><ele>59.7</ele><time>1970-01-01T00:08:33Z</time></trkpt>
			<trkpt lat="54.607410" lon="22.255300"><ele>59.4</ele><time>1970-01-01T00:08:34Z</time></trkpt>
			<trkpt lat="54.607630" lon="22.254460"><ele>58.7</ele><time>1970-01-01T00:08:35Z</time></trkpt>
			<trkpt lat="54.607790" lon="22.253890"><ele>58.4</ele><time>1970-01-01T00:08:36Z</time></trkpt>
			<trkpt lat="54.608040" lon="22.252960"><ele>58.3</ele><time>1970-01-01T00:08:37Z</time></trkpt>
			<trkpt lat="54.608630" lon="22.251060"><ele>56.9</ele><time>1970-01-01T00:08:38Z</time></trkpt>
			<trkpt lat="54.609080" lon="22.249670"><ele>55.9</ele><time>1970-01-01T00:08:39Z</time></trkpt>
			<trkpt lat="54.610010" lon="22.247170"><ele>54.1</ele><time>1970-01-01T00:08:40Z</time></trkpt>
			<trkpt lat="54.610480" lon="22.246060"><ele>54.3</ele><time>1970-01-01T00:08:41Z</time></trkpt>
			<trkpt lat="54.611970" lon="22.242560"><ele>51.3</ele><time>1970-01-01T00:08:42Z</time></trkpt>
			<trkpt lat="54.612100" lon="22.242260"><ele>51.4</ele><time>1970-01-01T00:08:43Z</time></trkpt>
			<trkpt lat="54.612370" lon="22.241620"><ele>50.9</ele><time>1970-01-01T00:08:44Z</time></trkpt>
			<trkpt lat="54.612650" lon="22.240960"><ele>50.2</ele><time>1970-01-01T00:08:45Z</time></trkpt>
			<trkpt lat="54.612880" lon="22.240410"><ele>49.8</ele><time>1970-01-01T00:08:46Z</time></trkpt>
			<trkpt lat="54.613160" lon="22.239740"><ele>49.0</ele><time>1970-01-01T00:08:47Z</time></trkpt>
			<trkpt lat="54.614370" lon="22.236830"><ele>48.4</ele><time>1970-01-01T00:08:48Z</time></trkpt>
			<trkpt lat="54.614680" lon="22.235990"><ele>49.4</ele><time>1970-01-01T00:08:49Z</time></trkpt>
			<trkpt lat="54.615130" lon="22.234680"><ele>50.9</ele><time>1970-01-01T00:08:50Z</time></trkpt>
			<trkpt lat="54.615460" lon="22.233600"><ele>53.9</ele><time>1970-01-01T00:08:51Z</time></trkpt>
			<trkpt lat="54.615610" lon="22.233040"><ele>55.5</ele><time>1970-01-01T00:08:52Z</time></trkpt>
			<trkpt lat="54.616140" lon="22.230950"><ele>56.1</ele><time>1970-01-01T00:08:53Z</time></trkpt>
			<trkpt lat="54.616340" lon="22.230130"><ele>58.7</ele><time>1970-01-01T00:08:54Z</time></trkpt>
			<trkpt lat="54.616970" lon="22.227210"><ele>57.6</ele><time>1970-01-01T00:08:55Z</time></trkpt>
			<trkpt lat="54.617220" lon="22.225760"><ele>56.4</ele><time>1970-01-01T00:08:56Z</time></trkpt>
			<trkpt lat="54.617350" lon="22.224810"><ele>54.1</ele><time>1970-01-01T00:08:57Z</time></trkpt>
			<trkpt lat="54.617470" lon="22.223720"><ele>50.3</ele><time>1970-01-01T00:08:58Z</time></trkpt>
			<trkpt lat="54.617570" lon="22.222720"><ele>47.0</ele><time>1970-01-01T00:08:59Z</time></trkpt>
			<trkpt lat="54.617650" lon="22.221570"><ele>46.0</ele><time>1970-01-01T00:09:00Z</time></trkpt>
			<trkpt lat="54.617710" lon="22.220290"><ele>46.6</ele><time>1970-01-01T00:09:01Z</time></trkpt>
			<trkpt lat="54.617750" lon="22.218790"><ele>49.7</ele><time>1970-01-01T00:09:02Z</time></trkpt>
			<trkpt lat="54.617710" lon="22.217690"><ele>53.0</ele><time>1970-01-01T00:09:03Z</time></trkpt>
			<trkpt lat="54.617630" lon="22.216170"><ele>53.9</ele><time>1970-01-01T00:09:04Z</time></trkpt>
			<trkpt lat="54.617330" lon="22.212810"><ele>55.1</ele><time>1970-01-01T00:09:05Z</time></trkpt>
			<trkpt lat="54.617250" lon="22.211710"><ele>53.2</ele><time>1970-01-01T00:09:06Z</time></trkpt>
			<trkpt lat="54.617170" lon="22.211030"><ele>52.7</ele><time>1970-01-01T00:09:07Z</time></trkpt>
			<trkpt lat="54.616910" lon="22.208410"><ele>50.8</ele><time>1970-01-01T00:09:08Z</time></trkpt>
			<trkpt lat="54.616900" lon="22.208330"><ele>50.7</ele><time>1970-01-01T00:09:09Z</time></trkpt>
			<trkpt lat="54.616830" lon="22.208340"><ele>50.6</ele><time>1970-01-01T00:09:10Z</time></trkpt>
			<trkpt lat="54.616310" lon="22.208490"><ele>49.3</ele><time>1970-01-01T00:09:11Z</time></trkpt>
			<trkpt lat="54.615400" lon="22.208760"><ele>48.0</ele><time>1970-01-01T00:09:12Z</time></trkpt>
			<trkpt lat="54.613160" lon="22.209300"><ele>45.9</ele><time>1970-01-01T00:09:13Z</time></trkpt>
			<trkpt lat="54.613160" lon="22.209300"><ele>45.9</ele><time>1970-01-01T00:09:14Z</time></trkpt>
			<trkpt lat="54.611140" lon="22.209800"><ele>43.3</ele><time>1970-01-01T00:09:15Z</time></trkpt>
			<trkpt lat="54.611010" lon="22.209830"><ele>43.3</ele><time>1970-01-01T00:09:16Z</time></trkpt>
			<trkpt lat="54.610810" lon="22.209880"><ele>43.2</ele><time>1970-01-01T00:09:17Z</time></trkpt>
			<trkpt lat="54.609630" lon="22.210190"><ele>43.3</ele><time>1970-01-01T00:09:18Z</time></trkpt>
			<trkpt lat="54.608230" lon="22.210510"><ele>41.5</ele><time>1970-01-01T00:09:19Z</time></trkpt>
			<trkpt lat="54.608150" lon="22.210530"><ele>41.6</ele><time>1970-01-01T00:09:20Z</time></trkpt>
			<trkpt lat="54.607570" lon="22.210690"><ele>42.7</ele><time>1970-01-01T00:09:21Z</time></trkpt>
			<trkpt lat="54.607070" lon="22.210800"><ele>44.5</ele><time>1970-01-01T00:09:22Z</time></trkpt>
			<trkpt lat="54.606550" lon="22.210940"><ele>46.0</ele><time>1970-01-01T00:09:23Z</time></trkpt>
			<trkpt lat="54.605600" lon="22.211200"><ele>46.7</ele><time>1970-01-01T00:09:24Z</time></trkpt>
			<trkpt lat="54.604800" lon="22.211390"><ele>47.3</ele><time>1970-01-01T00:09:25Z</time></trkpt>
			<trkpt lat="54.604190" lon="22.211500"><ele>46.3</ele><time>1970-01-01T00:09:26Z</time></trkpt>
			<trkpt lat="54.603820" lon="22.211510"><ele>47.0</ele><time>1970-01-01T00:09:27Z</time></trkpt>
			<trkpt lat="54.603460" lon="22.211490"><ele>47.7</ele><time>1970-01-01T00:09:28Z</time></trkpt>
			<trkpt lat="54.603100" lon="22.211430"><ele>48.6</ele><time>1970-01-01T00:09:29Z</time></trkpt>
			<trkpt lat="54.603000" lon="22.211400"><ele>48.9</ele><time>1970-01-01T00:09:30Z</time></trkpt>
			<trkpt lat="54.602530" lon="22.211210"><ele>50.5</ele><time>1970-01-01T00:09:31Z</time></trkpt>
			<trkpt lat="54.602040" lon="22.210910"><ele>52.6</ele><time>1970-01-01T00:09:32Z</time></trkpt>
			<trkpt lat="54.601620" lon="22.210610"><ele>53.9</ele><time>1970-01-01T00:09:33Z</time></trkpt>
			<trkpt lat="54.601580" lon="22.210580"><ele>54.0</ele><time>1970-01-01T00:09:34Z</time></trkpt>
			<trkpt lat="54.600660" lon="22.209710"><ele>55.0</ele><time>1970-01-01T00:09:35Z</time></trkpt>
			<trkpt lat="54.600590" lon="22.209640"><ele>54.8</ele><time>1970-01-01T00:09:36Z</time></trkpt>
			<trkpt lat="54.600490" lon="22.209530"><ele>54.5</ele><time>1970-01-01T00:09:37Z</time></trkpt>
			<trkpt lat="54.600440" lon="22.209470"><ele>54.4</ele><time>1970-01-01T00:09:38Z</time></trkpt>
			<trkpt lat="54.599860" lon="22.208880"><ele>53.7</ele><time>1970-01-01T00:09:39Z</time></trkpt>
			<trkpt lat="54.599000" lon="22.208040"><ele>53.2</ele><time>1970-01-01T00:09:40Z</time></trkpt>
			<trkpt lat="54.598620" lon="22.207680"><ele>51.9</ele><time>1970-01-01T00:09:41Z</time></trkpt>
			<trkpt lat="54.597260" lon="22.206370"><ele>49.2</ele><time>1970-01-01T00:09:42Z</time></trkpt>
			<trkpt lat="54.596730" lon="22.205850"><ele>48.9</ele><time>1970-01-01T00:09:43Z</time></trkpt>
			<trkpt lat="54.596300" lon="22.205430"><ele>48.5</ele><time>1970-01-01T00:09:44Z</time></trkpt>
			<trkpt lat="54.596060" lon="22.205200"><ele>48.2</ele><time>1970-01-01T00:09:45Z</time></trkpt>
			<trkpt lat="54.595590" lon="22.204750"><ele>47.8</ele><time>1970-01-01T00:09:46Z</time></trkpt>
			<trkpt lat="54.595200" lon="22.204380"><ele>47.8</ele><time>1970-01-01T00:09:47Z</time></trkpt>
			<trkpt lat="54.594800" lon="22.204000"><ele>47.8</ele><time>1970-01-01T00:09:48Z</time></trkpt>
			<trkpt lat="54.594790" lon="22.203990"><ele>47.8</ele><time>1970-01-01T00:09:49Z</time></trkpt>
			<trkpt lat="54.594710" lon="22.203900"><ele>47.7</ele><time>1970-01-01T00:09:50Z</time></trkpt>
			<trkpt lat="54.594190" lon="22.203350"><ele>47.0</ele><time>1970-01-01T00:09:51Z</time></trkpt>
			<trkpt lat="54.593010" lon="22.202190"><ele>46.0</ele><time>1970-01-01T00:09:52Z</time></trkpt>
			<trkpt lat="54.592670" lon="22.201890"><ele>45.3</ele><time>1970-01-01T00:09:53Z</time></trkpt>
			<trkpt lat="54.592510" lon="22.201650"><ele>45.0</ele><time>1970-01-01T00:09:54Z</time></trkpt>
			<trkpt lat="54.592490" lon="22.201550"><ele>45.0</ele><time>1970-01-01T00:09:55Z</time></trkpt>
			<trkpt lat="54.592480" lon="22.201470"><ele>45.0</ele><time>1970-01-01T00:09:56Z</time></trkpt>
			<trkpt lat="54.592480" lon="22.201350"><ele>45.0</ele><time>1970-01-01T00:09:57Z</time></trkpt>
			<trkpt lat="54.592450" lon="22.201240"><ele>45.1</ele><time>1970-01-01T00:09:58Z</time></trkpt>
			<trkpt lat="54.592390" lon="22.201170"><ele>45.1</ele><time>1970-01-01T00:09:59Z</time></trkpt>
			<trkpt lat="54.592320" lon="22.201110"><ele>45.1</ele><time>1970-01-01T00:10:00Z</time></trkpt>
			<trkpt lat="54.592080" lon="22.200860"><ele>45.0</ele><time>1970-01-01T00:10:01Z</time></trkpt>
			<trkpt lat="54.591970" lon="22.200770"><ele>45.0</ele><time>1970-01-01T00:10:02Z</time></trkpt>
			<trkpt lat="54.591910" lon="22.200750"><ele>45.0</ele><time>1970-01-01T00:10:03Z</time></trkpt>
			<trkpt lat="54.591870" lon="22.200780"><ele>45.0</ele><time>1970-01-01T00:10:04Z</time></trkpt>
			<trkpt lat="54.591830" lon="22.200830"><ele>45.0</ele><time>1970-01-01T00:10:05Z</time></trkpt>
			<trkpt lat="54.591640" lon="22.200850"><ele>44.8</ele><time>1970-01-01T00:10:06Z</time></trkpt>
			<trkpt lat="54.591540" lon="22.200810"><ele>44.5</ele><time>1970-01-01T00:10:07Z</time></trkpt>
			<trkpt lat="54.591490" lon="22.200790"><ele>44.4</ele><time>1970-01-01T00:10:08Z</time></trkpt>
			<trkpt lat="54.591200" lon="22.200510"><ele>43.5</ele><time>1970-01-01T00:10:09Z</time></trkpt>
			<trkpt lat="54.590990" lon="22.200340"><ele>43.1</ele><time>1970-01-01T00:10:10Z</time></trkpt>
			<trkpt lat="54.590940" lon="22.200300"><ele>43.0</ele><time>1970-01-01T00:10:11Z</time></trkpt>
			<trkpt lat="54.590570" lon="22.199950"><ele>44.0</ele><time>1970-01-01T00:10:12Z</time></trkpt>
			<trkpt lat="54.590530" lon="22.199900"><ele>44.2</ele><time>1970-01-01T00:10:13Z</time></trkpt>
			<trkpt lat="54.590380" lon="22.199730"><ele>44.8</ele><time>1970-01-01T00:10:14Z</time></trkpt>
			<trkpt lat="54.590310" lon="22.199660"><ele>45.0</ele><time>1970-01-01T00:10:15Z</time></trkpt>
			<trkpt lat="54.588870" lon="22.198340"><ele>45.1</ele><time>1970-01-01T00:10:16Z</time></trkpt>
			<trkpt lat="54.588300" lon="22.197810"><ele>47.0</ele><time>1970-01-01T00:10:17Z</time></trkpt>
			<trkpt lat="54.587710" lon="22.197250"><ele>47.9</ele><time>1970-01-01T00:10:18Z</time></trkpt>
			<trkpt lat="54.587330" lon="22.196900"><ele>48.3</ele><time>1970-01-01T00:10:19Z</time></trkpt>
			<trkpt lat="54.586590" lon="22.196190"><ele>46.2</ele><time>1970-01-01T00:10:20Z</time></trkpt>
			<trkpt lat="54.586060" lon="22.195690"><ele>44.6</ele><time>1970-01-01T00:10:21Z</time></trkpt>
			<trkpt lat="54.585280" lon="22.194940"><ele>45.0</ele><time>1970-01-01T00:10:22Z</time></trkpt>
			<trkpt lat="54.584770" lon="22.194460"><ele>45.1</ele><time>1970-01-01T00:10:23Z</time></trkpt>
			<trkpt lat="54.584440" lon="22.194150"><ele>45.0</ele><time>1970-01-01T00:10:24Z</time></trkpt>
			<trkpt lat="54.582980" lon="22.192710"><ele>46.6</ele><time>1970-01-01T00:10:25Z</time></trkpt>
			<trkpt lat="54.582940" lon="22.192670"><ele>46.6</ele><time>1970-01-01T00:10:26Z</time></trkpt>
			<trkpt lat="54.582920" lon="22.192650"><ele>46.6</ele><time>1970-01-01T00:10:27Z</time></trkpt>
			<trkpt lat="54.582890" lon="22.192630"><ele>46.6</ele><time>1970-01-01T00:10:28Z</time></trkpt>
			<trkpt lat="54.582840" lon="22.192580"><ele>46.6</ele><time>1970-01-01T00:10:29Z</time></trkpt>
			<trkpt lat="54.582770" lon="22.192520"><ele>46.7</ele><time>1970-01-01T00:10:30Z</time></trkpt>
			<trkpt lat="54.581630" lon="22.191480"><ele>49.0</ele><time>1970-01-01T00:10:31Z</time></trkpt>
			<trkpt lat="54.581250" lon="22.191100"><ele>49.8</ele><time>1970-01-01T00:10:32Z</time></trkpt>
			<trkpt lat="54.581140" lon="22.190990"><ele>50.2</ele><time>1970-01-01T00:10:33Z</time></trkpt>
			<trkpt lat="54.580400" lon="22.190250"><ele>50.7</ele><time>1970-01-01T00:10:34Z</time></trkpt>
			<trkpt lat="54.580090" lon="22.189960"><ele>50.9</ele><time>1970-01-01T00:10:35Z</time></trkpt>
			<trkpt lat="54.580020" lon="22.189890"><ele>50.9</ele><time>1970-01-01T00:10:36Z</time></trkpt>
			<trkpt lat="54.579841" lon="22.189556"><ele>50.4</ele><time>1970-01-01T00:10:37Z</time></trkpt>
			<trkpt lat="54.579742" lon="22.189212"><ele>50.1</ele><time>1970-01-01T00:10:38Z</time></trkpt>
			<trkpt lat="54.579129" lon="22.184513"><ele>46.8</ele><time>1970-01-01T00:10:39Z</time></trkpt>
			<trkpt lat="54.578999" lon="22.184111"><ele>46.0</ele><time>1970-01-01T00:10:40Z</time></trkpt>
			<trkpt lat="54.578703" lon="22.183644"><ele>45.7</ele><time>1970-01-01T00:10:41Z</time></trkpt>
			<trkpt lat="54.572329" lon="22.177942"><ele>45.9</ele><time>1970-01-01T00:10:42Z</time></trkpt>
			<trkpt lat="54.564962" lon="22.171462"><ele>51.7</ele><time>1970-01-01T00:10:43Z</time></trkpt>
			<trkpt lat="54.560915" lon="22.167846"><ele>55.3</ele><time>1970-01-01T00:10:44Z</time></trkpt>
			<trkpt lat="54.560554" lon="22.167631"><ele>55.7</ele><time>1970-01-01T00:10:45Z</time></trkpt>
			<trkpt lat="54.559360" lon="22.167084"><ele>57.7</ele><time>1970-01-01T00:10:46Z</time></trkpt>
			<trkpt lat="54.559074" lon="22.166886"><ele>58.2</ele><time>1970-01-01T00:10:47Z</time></trkpt>
			<trkpt lat="54.558427" lon="22.165958"><ele>60.4</ele><time>1970-01-01T00:10:48Z</time></trkpt>
			<trkpt lat="54.557910" lon="22.165330"><ele>60.8</ele><time>1970-01-01T00:10:49Z</time></trkpt>
			<trkpt lat="54.557543" lon="22.164938"><ele>61.7</ele><time>1970-01-01T00:10:50Z</time></trkpt>
			<trkpt lat="54.556769" lon="22.164472"><ele>63.1</ele><time>1970-01-01T00:10:51Z</time></trkpt>
			<trkpt lat="54.556486" lon="22.164059"><ele>63.2</ele><time>1970-01-01T00:10:52Z</time></trkpt>
			<trkpt lat="54.551346" lon="22.152793"><ele>58.4</ele><time>1970-01-01T00:10:53Z</time></trkpt>
			<trkpt lat="54.551234" lon="22.152203"><ele>57.7</ele><time>1970-01-01T00:10:54Z</time></trkpt>
			<trkpt lat="54.551125" lon="22.151935"><ele>57.6</ele><time>1970-01-01T00:10:55Z</time></trkpt>
			<trkpt lat="54.550562" lon="22.151039"><ele>58.2</ele><time>1970-01-01T00:10:56Z</time></trkpt>
			<trkpt lat="54.547861" lon="22.145219"><ele>60.5</ele><time>1970-01-01T00:10:57Z</time></trkpt>
			<trkpt lat="54.542609" lon="22.126497"><ele>63.7</ele><time>1970-01-01T00:10:58Z</time></trkpt>
			<trkpt lat="54.542285" lon="22.125564"><ele>63.3</ele><time>1970-01-01T00:10:59Z</time></trkpt>
			<trkpt lat="54.541962" lon="22.124898"><ele>64.1</ele><time>1970-01-01T00:11:00Z</time></trkpt>
			<trkpt lat="54.541526" lon="22.124158"><ele>64.9</ele><time>1970-01-01T00:11:01Z</time></trkpt>
			<trkpt lat="54.539534" lon="22.120982"><ele>62.6</ele><time>1970-01-01T00:11:02Z</time></trkpt>
			<trkpt lat="54.538993" lon="22.119899"><ele>60.9</ele><time>1970-01-01T00:11:03Z</time></trkpt>
			<trkpt lat="54.538638" lon="22.119137"><ele>61.5</ele><time>1970-01-01T00:11:04Z</time></trkpt>
			<trkpt lat="54.538439" lon="22.118579"><ele>62.9</ele><time>1970-01-01T00:11:05Z</time></trkpt>
			<trkpt lat="54.538258" lon="22.117592"><ele>62.4</ele><time>1970-01-01T00:11:06Z</time></trkpt>
			<trkpt lat="54.538103" lon="22.117045"><ele>62.9</ele><time>1970-01-01T00:11:07Z</time></trkpt>
			<trkpt lat="54.537692" lon="22.116079"><ele>63.9</ele><time>1970-01-01T00:11:08Z</time></trkpt>
			<trkpt lat="54.534106" lon="22.108397"><ele>66.1</ele><time>1970-01-01T00:11:09Z</time></trkpt>
			<trkpt lat="54.533073" lon="22.106241"><ele>65.3</ele><time>1970-01-01T00:11:10Z</time></trkpt>
			<trkpt lat="54.525048" lon="22.090180"><ele>68.9</ele><time>1970-01-01T00:11:11Z</time></trkpt>
			<trkpt lat="54.524537" lon="22.089086"><ele>68.6</ele><time>1970-01-01T00:11:12Z</time></trkpt>
			<trkpt lat="54.523809" lon="22.086897"><ele>67.6</ele><time>1970-01-01T00:11:13Z</time></trkpt>
			<trkpt lat="54.522539" lon="22.082884"><ele>58.6</ele><time>1970-01-01T00:11:14Z</time></trkpt>
			<trkpt lat="54.522290" lon="22.081672"><ele>57.3</ele><time>1970-01-01T00:11:15Z</time></trkpt>
			<trkpt lat="54.522202" lon="22.080717"><ele>55.4</ele><time>1970-01-01T00:11:16Z</time></trkpt>
			<trkpt lat="54.522209" lon="22.079558"><ele>53.7</ele><time>1970-01-01T00:11:17Z</time></trkpt>
			<trkpt lat="54.522258" lon="22.078314"><ele>49.1</ele><time>1970-01-01T00:11:18Z</time></trkpt>
			<trkpt lat="54.522458" lon="22.076383"><ele>45.8</ele><time>1970-01-01T00:11:19Z</time></trkpt>
			<trkpt lat="54.522607" lon="22.075717"><ele>45.3</ele><time>1970-01-01T00:11:20Z</time></trkpt>
			<trkpt lat="54.523385" lon="22.073958"><ele>49.8</ele><time>1970-01-01T00:11:21Z</time></trkpt>
			<trkpt lat="54.523846" lon="22.072831"><ele>55.7</ele><time>1970-01-01T00:11:22Z</time></trkpt>
			<trkpt lat="54.523946" lon="22.072434"><ele>57.7</ele><time>1970-01-01T00:11:23Z</time></trkpt>
			<trkpt lat="54.524039" lon="22.071801"><ele>60.3</ele><time>1970-01-01T00:11:24Z</time></trkpt>
			<trkpt lat="54.523871" lon="22.069827"><ele>65.3</ele><time>1970-01-01T00:11:25Z</time></trkpt>
			<trkpt lat="54.523703" lon="22.069012"><ele>64.9</ele><time>1970-01-01T00:11:26Z</time></trkpt>
			<trkpt lat="54.523522" lon="22.068572"><ele>64.8</ele><time>1970-01-01T00:11:27Z</time></trkpt>
			<trkpt lat="54.523323" lon="22.068229"><ele>64.9</ele><time>1970-01-01T00:11:28Z</time></trkpt>
			<trkpt lat="54.521424" lon="22.066796"><ele>66.3</ele><time>1970-01-01T00:11:29Z</time></trkpt>
			<trkpt lat="54.511945" lon="22.059989"><ele>72.3</ele><time>1970-01-01T00:11:30Z</time></trkpt>
			<trkpt lat="54.510700" lon="22.059072"><ele>75.1</ele><time>1970-01-01T00:11:31Z</time></trkpt>
			<trkpt lat="54.510485" lon="22.058852"><ele>75.4</ele><time>1970-01-01T00:11:32Z</time></trkpt>
			<trkpt lat="54.510310" lon="22.058610"><ele>75.7</ele><time>1970-01-01T00:11:33Z</time></trkpt>
			<trkpt lat="54.509351" lon="22.056556"><ele>77.1</ele><time>1970-01-01T00:11:34Z</time></trkpt>
			<trkpt lat="54.508862" lon="22.055923"><ele>76.9</ele><time>1970-01-01T00:11:35Z</time></trkpt>
			<trkpt lat="54.488392" lon="22.031220"><ele>82.9</ele><time>1970-01-01T00:11:36Z</time></trkpt>
			<trkpt lat="54.472173" lon="22.011538"><ele>97.3</ele><time>1970-01-01T00:11:37Z</time></trkpt>
			<trkpt lat="54.471746" lon="22.010819"><ele>100.1</ele><time>1970-01-01T00:11:38Z</time></trkpt>
			<trkpt lat="54.471627" lon="22.010491"><ele>101.7</ele><time>1970-01-01T00:11:39Z</time></trkpt>
			<trkpt lat="54.471431" lon="22.009504"><ele>104.2</ele><time>1970-01-01T00:11:40Z</time></trkpt>
			<trkpt lat="54.470674" lon="21.999049"><ele>103.4</ele><time>1970-01-01T00:11:41Z</time></trkpt>
			<trkpt lat="54.469854" lon="21.988326"><ele>119.4</ele><time>1970-01-01T00:11:42Z</time></trkpt>
			<trkpt lat="54.471652" lon="21.988476"><ele>134.3</ele><time>1970-01-01T00:11:43Z</time></trkpt>
			<trkpt lat="54.473866" lon="21.987703"><ele>114.2</ele><time>1970-01-01T00:11:44Z</time></trkpt>
			<trkpt lat="54.474096" lon="21.987559"><ele>111.0</ele><time>1970-01-01T00:11:45Z</time></trkpt>
			<trkpt lat="54.474271" lon="21.987333"><ele>108.5</ele><time>1970-01-01T00:11:46Z</time></trkpt>
			<trkpt lat="54.475979" lon="21.983251"><ele>108.3</ele><time>1970-01-01T00:11:47Z</time></trkpt>
			<trkpt lat="54.476235" lon="21.982757"><ele>108.6</ele><time>1970-01-01T00:11:48Z</time></trkpt>
			<trkpt lat="54.476431" lon="21.982586"><ele>109.2</ele><time>1970-01-01T00:11:49Z</time></trkpt>
			<trkpt lat="54.476637" lon="21.982516"><ele>109.7</ele><time>1970-01-01T00:11:50Z</time></trkpt>
			<trkpt lat="54.477653" lon="21.982189"><ele>105.5</ele><time>1970-01-01T00:11:51Z</time></trkpt>
			<trkpt lat="54.479429" lon="21.981679"><ele>101.3</ele><time>1970-01-01T00:11:52Z</time></trkpt>
			<trkpt lat="54.479803" lon="21.981347"><ele>102.0</ele><time>1970-01-01T00:11:53Z</time></trkpt>
			<trkpt lat="54.480841" lon="21.980161"><ele>103.8</ele><time>1970-01-01T00:11:54Z</time></trkpt>
			<trkpt lat="54.481642" lon="21.979684"><ele>107.0</ele><time>1970-01-01T00:11:55Z</time></trkpt>
			<trkpt lat="54.482505" lon="21.978782"><ele>111.7</ele><time>1970-01-01T00:11:56Z</time></trkpt>
			<trkpt lat="54.485429" lon="21.975612"><ele>117.0</ele><time>1970-01-01T00:11:57Z</time></trkpt>
			<trkpt lat="54.487043" lon="21.973799"><ele>110.9</ele><time>1970-01-01T00:11:58Z</time></trkpt>
			<trkpt lat="54.487460" lon="21.973252"><ele>109.8</ele><time>1970-01-01T00:11:59Z</time></trkpt>
			<trkpt lat="54.489283" lon="21.968381"><ele>96.8</ele><time>1970-01-01T00:12:00Z</time></trkpt>
			<trkpt lat="54.489523" lon="21.967882"><ele>96.2</ele><time>1970-01-01T00:12:01Z</time></trkpt>
			<trkpt lat="54.489828" lon="21.967415"><ele>95.6</ele><time>1970-01-01T00:12:02Z</time></trkpt>
			<trkpt lat="54.490190" lon="21.966949"><ele>94.7</ele><time>1970-01-01T00:12:03Z</time></trkpt>
			<trkpt lat="54.490573" lon="21.966573"><ele>93.9</ele><time>1970-01-01T00:12:04Z</time></trkpt>
			<trkpt lat="54.492249" lon="21.965173"><ele>89.6</ele><time>1970-01-01T00:12:05Z</time></trkpt>
			<trkpt lat="54.495053" lon="21.962904"><ele>80.4</ele><time>1970-01-01T00:12:06Z</time></trkpt>
			<trkpt lat="54.496060" lon="21.962045"><ele>77.5</ele><time>1970-01-01T00:12:07Z</time></trkpt>
			<trkpt lat="54.496368" lon="21.961691"><ele>77.0</ele><time>1970-01-01T00:12:08Z</time></trkpt>
			<trkpt lat="54.497225" lon="21.960340"><ele>77.9</ele><time>1970-01-01T00:12:09Z</time></trkpt>
			<trkpt lat="54.498265" lon="21.959546"><ele>78.1</ele><time>1970-01-01T00:12:10Z</time></trkpt>
			<trkpt lat="54.498745" lon="21.959047"><ele>77.5</ele><time>1970-01-01T00:12:11Z</time></trkpt>
			<trkpt lat="54.500842" lon="21.956268"><ele>70.5</ele><time>1970-01-01T00:12:12Z</time></trkpt>
			<trkpt lat="54.501138" lon="21.955935"><ele>69.7</ele><time>1970-01-01T00:12:13Z</time></trkpt>
			<trkpt lat="54.501521" lon="21.955651"><ele>69.0</ele><time>1970-01-01T00:12:14Z</time></trkpt>
			<trkpt lat="54.501845" lon="21.955479"><ele>68.9</ele><time>1970-01-01T00:12:15Z</time></trkpt>
			<trkpt lat="54.503517" lon="21.954723"><ele>69.5</ele><time>1970-01-01T00:12:16Z</time></trkpt>
			<trkpt lat="54.509519" lon="21.951842"><ele>63.4</ele><time>1970-01-01T00:12:17Z</time></trkpt>
			<trkpt lat="54.509965" lon="21.951681"><ele>62.2</ele><time>1970-01-01T00:12:18Z</time></trkpt>
			<trkpt lat="54.510451" lon="21.951553"><ele>61.9</ele><time>1970-01-01T00:12:19Z</time></trkpt>
			<trkpt lat="54.513618" lon="21.951579"><ele>63.8</ele><time>1970-01-01T00:12:20Z</time></trkpt>
			<trkpt lat="54.513882" lon="21.951542"><ele>63.8</ele><time>1970-01-01T00:12:21Z</time></trkpt>
			<trkpt lat="54.514250" lon="21.951215"><ele>63.4</ele><time>1970-01-01T00:12:22Z</time></trkpt>
			<trkpt lat="54.514564" lon="21.950839"><ele>63.4</ele><time>1970-01-01T00:12:23Z</time></trkpt>
			<trkpt lat="54.517722" lon="21.946269"><ele>63.5</ele><time>1970-01-01T00:12:24Z</time></trkpt>
			<trkpt lat="54.518102" lon="21.945786"><ele>63.7</ele><time>1970-01-01T00:12:25Z</time></trkpt>
			<trkpt lat="54.520088" lon="21.943758"><ele>65.7</ele><time>1970-01-01T00:12:26Z</time></trkpt>
			<trkpt lat="54.520350" lon="21.943436"><ele>66.3</ele><time>1970-01-01T00:12:27Z</time></trkpt>
			<trkpt lat="54.520745" lon="21.942696"><ele>68.2</ele><time>1970-01-01T00:12:28Z</time></trkpt>
			<trkpt lat="54.522090" lon="21.939778"><ele>74.3</ele><time>1970-01-01T00:12:29Z</time></trkpt>
			<trkpt lat="54.523466" lon="21.936570"><ele>78.1</ele><time>1970-01-01T00:12:30Z</time></trkpt>
			<trkpt lat="54.523647" lon="21.936366"><ele>78.0</ele><time>1970-01-01T00:12:31Z</time></trkpt>
			<trkpt lat="54.523893" lon="21.936307"><ele>78.5</ele><time>1970-01-01T00:12:32Z</time></trkpt>
			<trkpt lat="54.526620" lon="21.936082"><ele>72.3</ele><time>1970-01-01T00:12:33Z</time></trkpt>
			<trkpt lat="54.526947" lon="21.936103"><ele>72.3</ele><time>1970-01-01T00:12:34Z</time></trkpt>
			<trkpt lat="54.528065" lon="21.936318"><ele>74.0</ele><time>1970-01-01T00:12:35Z</time></trkpt>
			<trkpt lat="54.529350" lon="21.936479"><ele>73.5</ele><time>1970-01-01T00:12:36Z</time></trkpt>
			<trkpt lat="54.529624" lon="21.936420"><ele>73.6</ele><time>1970-01-01T00:12:37Z</time></trkpt>
			<trkpt lat="54.529935" lon="21.936248"><ele>74.0</ele><time>1970-01-01T00:12:38Z</time></trkpt>
			<trkpt lat="54.531305" lon="21.934719"><ele>69.1</ele><time>1970-01-01T00:12:39Z</time></trkpt>
			<trkpt lat="54.536375" lon="21.928909"><ele>65.4</ele><time>1970-01-01T00:12:40Z</time></trkpt>
			<trkpt lat="54.537259" lon="21.927949"><ele>65.0</ele><time>1970-01-01T00:12:41Z</time></trkpt>
			<trkpt lat="54.537639" lon="21.927719"><ele>65.0</ele><time>1970-01-01T00:12:42Z</time></trkpt>
			<trkpt lat="54.538065" lon="21.927638"><ele>64.9</ele><time>1970-01-01T00:12:43Z</time></trkpt>
			<trkpt lat="54.541417" lon="21.927407"><ele>63.6</ele><time>1970-01-01T00:12:44Z</time></trkpt>
			<trkpt lat="54.541887" lon="21.927456"><ele>63.7</ele><time>1970-01-01T00:12:45Z</time></trkpt>
			<trkpt lat="54.542503" lon="21.927601"><ele>62.9</ele><time>1970-01-01T00:12:46Z</time></trkpt>
			<trkpt lat="54.542979" lon="21.927601"><ele>62.4</ele><time>1970-01-01T00:12:47Z</time></trkpt>
			<trkpt lat="54.543250" lon="21.927477"><ele>62.1</ele><time>1970-01-01T00:12:48Z</time></trkpt>
			<trkpt lat="54.544364" lon="21.926844"><ele>59.5</ele><time>1970-01-01T00:12:49Z</time></trkpt>
			<trkpt lat="54.546384" lon="21.925991"><ele>58.2</ele><time>1970-01-01T00:12:50Z</time></trkpt>
			<trkpt lat="54.547099" lon="21.925423"><ele>57.0</ele><time>1970-01-01T00:12:51Z</time></trkpt>
			<trkpt lat="54.548845" lon="21.923937"><ele>55.4</ele><time>1970-01-01T00:12:52Z</time></trkpt>
			<trkpt lat="54.550705" lon="21.922140"><ele>52.2</ele><time>1970-01-01T00:12:53Z</time></trkpt>
			<trkpt lat="54.551135" lon="21.921802"><ele>51.6</ele><time>1970-01-01T00:12:54Z</time></trkpt>
			<trkpt lat="54.553910" lon="21.919935"><ele>50.6</ele><time>1970-01-01T00:12:55Z</time></trkpt>
			<trkpt lat="54.555643" lon="21.918717"><ele>48.5</ele><time>1970-01-01T00:12:56Z</time></trkpt>
			<trkpt lat="54.556181" lon="21.918320"><ele>48.1</ele><time>1970-01-01T00:12:57Z</time></trkpt>
			<trkpt lat="54.558122" lon="21.916743"><ele>46.8</ele><time>1970-01-01T00:12:58Z</time></trkpt>
			<trkpt lat="54.558557" lon="21.916357"><ele>46.3</ele><time>1970-01-01T00:12:59Z</time></trkpt>
			<trkpt lat="54.558881" lon="21.915981"><ele>46.0</ele><time>1970-01-01T00:13:00Z</time></trkpt>
			<trkpt lat="54.561652" lon="21.912489"><ele>48.9</ele><time>1970-01-01T00:13:01Z</time></trkpt>
			<trkpt lat="54.561954" lon="21.912189"><ele>48.6</ele><time>1970-01-01T00:13:02Z</time></trkpt>
			<trkpt lat="54.563145" lon="21.911148"><ele>47.7</ele><time>1970-01-01T00:13:03Z</time></trkpt>
			<trkpt lat="54.563379" lon="21.911003"><ele>47.7</ele><time>1970-01-01T00:13:04Z</time></trkpt>
			<trkpt lat="54.563553" lon="21.910955"><ele>47.6</ele><time>1970-01-01T00:13:05Z</time></trkpt>
			<trkpt lat="54.564178" lon="21.911003"><ele>47.0</ele><time>1970-01-01T00:13:06Z</time></trkpt>
			<trkpt lat="54.564430" lon="21.911057"><ele>46.8</ele><time>1970-01-01T00:13:07Z</time></trkpt>
			<trkpt lat="54.564732" lon="21.911046"><ele>46.5</ele><time>1970-01-01T00:13:08Z</time></trkpt>
			<trkpt lat="54.564977" lon="21.910955"><ele>46.2</ele><time>1970-01-01T00:13:09Z</time></trkpt>
			<trkpt lat="54.566750" lon="21.909989"><ele>45.1</ele><time>1970-01-01T00:13:10Z</time></trkpt>
			<trkpt lat="54.567086" lon="21.909860"><ele>45.5</ele><time>1970-01-01T00:13:11Z</time></trkpt>
			<trkpt lat="54.570647" lon="21.909147"><ele>45.2</ele><time>1970-01-01T00:13:12Z</time></trkpt>
			<trkpt lat="54.572995" lon="21.908605"><ele>49.4</ele><time>1970-01-01T00:13:13Z</time></trkpt>
			<trkpt lat="54.573380" lon="21.908342"><ele>50.9</ele><time>1970-01-01T00:13:14Z</time></trkpt>
			<trkpt lat="54.575793" lon="21.904083"><ele>48.5</ele><time>1970-01-01T00:13:15Z</time></trkpt>
			<trkpt lat="54.576141" lon="21.903546"><ele>50.1</ele><time>1970-01-01T00:13:16Z</time></trkpt>
			<trkpt lat="54.577052" lon="21.903219"><ele>49.1</ele><time>1970-01-01T00:13:17Z</time></trkpt>
			<trkpt lat="54.579207" lon="21.902533"><ele>42.1</ele><time>1970-01-01T00:13:18Z</time></trkpt>
			<trkpt lat="54.586687" lon="21.898268"><ele>37.9</ele><time>1970-01-01T00:13:19Z</time></trkpt>
			<trkpt lat="54.588123" lon="21.897479"><ele>36.0</ele><time>1970-01-01T00:13:20Z</time></trkpt>
			<trkpt lat="54.588502" lon="21.897458"><ele>36.0</ele><time>1970-01-01T00:13:21Z</time></trkpt>
			<trkpt lat="54.588760" lon="21.897517"><ele>36.0</ele><time>1970-01-01T00:13:22Z</time></trkpt>
			<trkpt lat="54.589093" lon="21.897646"><ele>36.2</ele><time>1970-01-01T00:13:23Z</time></trkpt>
			<trkpt lat="54.590743" lon="21.898676"><ele>36.6</ele><time>1970-01-01T00:13:24Z</time></trkpt>
			<trkpt lat="54.591225" lon="21.898944"><ele>36.6</ele><time>1970-01-01T00:13:25Z</time></trkpt>
			<trkpt lat="54.591467" lon="21.899019"><ele>36.8</ele><time>1970-01-01T00:13:26Z</time></trkpt>
			<trkpt lat="54.591809" lon="21.899073"><ele>36.9</ele><time>1970-01-01T00:13:27Z</time></trkpt>
			<trkpt lat="54.592220" lon="21.899062"><ele>36.4</ele><time>1970-01-01T00:13:28Z</time></trkpt>
			<trkpt lat="54.592863" lon="21.899137"><ele>36.0</ele><time>1970-01-01T00:13:29Z</time></trkpt>
			<trkpt lat="54.601366" lon="21.899550"><ele>36.7</ele><time>1970-01-01T00:13:30Z</time></trkpt>
			<trkpt lat="54.607359" lon="21.899802"><ele>39.0</ele><time>1970-01-01T00:13:31Z</time></trkpt>
			<trkpt lat="54.607766" lon="21.899856"><ele>38.7</ele><time>1970-01-01T00:13:32Z</time></trkpt>
			<trkpt lat="54.608155" lon="21.900124"><ele>38.0</ele><time>1970-01-01T00:13:33Z</time></trkpt>
			<trkpt lat="54.609662" lon="21.901637"><ele>32.0</ele><time>1970-01-01T00:13:34Z</time></trkpt>
			<trkpt lat="54.609913" lon="21.901830"><ele>31.8</ele><time>1970-01-01T00:13:35Z</time></trkpt>
			<trkpt lat="54.610152" lon="21.901916"><ele>31.8</ele><time>1970-01-01T00:13:36Z</time></trkpt>
			<trkpt lat="54.611153" lon="21.901921"><ele>32.8</ele><time>1970-01-01T00:13:37Z</time></trkpt>
			<trkpt lat="54.612321" lon="21.901867"><ele>32.7</ele><time>1970-01-01T00:13:38Z</time></trkpt>
			<trkpt lat="54.619332" lon="21.900483"><ele>35.7</ele><time>1970-01-01T00:13:39Z</time></trkpt>
			<trkpt lat="54.619605" lon="21.900376"><ele>35.7</ele><time>1970-01-01T00:13:40Z</time></trkpt>
			<trkpt lat="54.619869" lon="21.900156"><ele>35.9</ele><time>1970-01-01T00:13:41Z</time></trkpt>
			<trkpt lat="54.620444" lon="21.898692"><ele>36.5</ele><time>1970-01-01T00:13:42Z</time></trkpt>
			<trkpt lat="54.620630" lon="21.898053"><ele>36.5</ele><time>1970-01-01T00:13:43Z</time></trkpt>
			<trkpt lat="54.622804" lon="21.885796"><ele>33.8</ele><time>1970-01-01T00:13:44Z</time></trkpt>
			<trkpt lat="54.623851" lon="21.882293"><ele>31.9</ele><time>1970-01-01T00:13:45Z</time></trkpt>
			<trkpt lat="54.624804" lon="21.879272"><ele>29.7</ele><time>1970-01-01T00:13:46Z</time></trkpt>
			<trkpt lat="54.624913" lon="21.878698"><ele>30.3</ele><time>1970-01-01T00:13:47Z</time></trkpt>
			<trkpt lat="54.626283" lon="21.862063"><ele>35.8</ele><time>1970-01-01T00:13:48Z</time></trkpt>
			<trkpt lat="54.626742" lon="21.848910"><ele>39.2</ele><time>1970-01-01T00:13:49Z</time></trkpt>
			<trkpt lat="54.627003" lon="21.839898"><ele>38.5</ele><time>1970-01-01T00:13:50Z</time></trkpt>
			<trkpt lat="54.627087" lon="21.839356"><ele>38.1</ele><time>1970-01-01T00:13:51Z</time></trkpt>
			<trkpt lat="54.629462" lon="21.829281"><ele>34.3</ele><time>1970-01-01T00:13:52Z</time></trkpt>
			<trkpt lat="54.630167" lon="21.819808"><ele>36.2</ele><time>1970-01-01T00:13:53Z</time></trkpt>
			<trkpt lat="54.630658" lon="21.815586"><ele>35.0</ele><time>1970-01-01T00:13:54Z</time></trkpt>
			<trkpt lat="54.630680" lon="21.815194"><ele>35.4</ele><time>1970-01-01T00:13:55Z</time></trkpt>
			<trkpt lat="54.630708" lon="21.813462"><ele>34.0</ele><time>1970-01-01T00:13:56Z</time></trkpt>
			<trkpt lat="54.629984" lon="21.810286"><ele>31.3</ele><time>1970-01-01T00:13:57Z</time></trkpt>
			<trkpt lat="54.630217" lon="21.808248"><ele>31.8</ele><time>1970-01-01T00:13:58Z</time></trkpt>
			<trkpt lat="54.630382" lon="21.807416"><ele>32.9</ele><time>1970-01-01T00:13:59Z</time></trkpt>
			<trkpt lat="54.630484" lon="21.807014"><ele>33.6</ele><time>1970-01-01T00:14:00Z</time></trkpt>
			<trkpt lat="54.630941" lon="21.806016"><ele>33.3</ele><time>1970-01-01T00:14:01Z</time></trkpt>
			<trkpt lat="54.631000" lon="21.805732"><ele>32.6</ele><time>1970-01-01T00:14:02Z</time></trkpt>
			<trkpt lat="54.631021" lon="21.805437"><ele>32.7</ele><time>1970-01-01T00:14:03Z</time></trkpt>
			<trkpt lat="54.630972" lon="21.804755"><ele>32.6</ele><time>1970-01-01T00:14:04Z</time></trkpt>
			<trkpt lat="54.631214" lon="21.802706"><ele>32.0</ele><time>1970-01-01T00:14:05Z</time></trkpt>
			<trkpt lat="54.631294" lon="21.802497"><ele>32.0</ele><time>1970-01-01T00:14:06Z</time></trkpt>
			<trkpt lat="54.631394" lon="21.802465"><ele>32.0</ele><time>1970-01-01T00:14:07Z</time></trkpt>
			<trkpt lat="54.631947" lon="21.803001"><ele>30.6</ele><time>1970-01-01T00:14:08Z</time></trkpt>
			<trkpt lat="54.632251" lon="21.803076"><ele>29.2</ele><time>1970-01-01T00:14:09Z</time></trkpt>
			<trkpt lat="54.633207" lon="21.803130"><ele>26.1</ele><time>1970-01-01T00:14:10Z</time></trkpt>
			<trkpt lat="54.634670" lon="21.803071"><ele>23.5</ele><time>1970-01-01T00:14:11Z</time></trkpt>
			<trkpt lat="54.635337" lon="21.803103"><ele>23.9</ele><time>1970-01-01T00:14:12Z</time></trkpt>
			<trkpt lat="54.635967" lon="21.803087"><ele>24.7</ele><time>1970-01-01T00:14:13Z</time></trkpt>
			<trkpt lat="54.635986" lon="21.803200"><ele>24.6</ele><time>1970-01-01T00:14:14Z</time></trkpt>
			<trkpt lat="54.636815" lon="21.803141"><ele>24.3</ele><time>1970-01-01T00:14:15Z</time></trkpt>
			<trkpt lat="54.637954" lon="21.803162"><ele>24.0</ele><time>1970-01-01T00:14:16Z</time></trkpt>
			<trkpt lat="54.638125" lon="21.803226"><ele>24.0</ele><time>1970-01-01T00:14:17Z</time></trkpt>
			<trkpt lat="54.638793" lon="21.804128"><ele>22.2</ele><time>1970-01-01T00:14:18Z</time></trkpt>
			<trkpt lat="54.638963" lon="21.804466"><ele>21.6</ele><time>1970-01-01T00:14:19Z</time></trkpt>
			<trkpt lat="54.639128" lon="21.805195"><ele>20.2</ele><time>1970-01-01T00:14:20Z</time></trkpt>
			<trkpt lat="54.639364" lon="21.806923"><ele>22.1</ele><time>1970-01-01T00:14:21Z</time></trkpt>
			<trkpt lat="54.639550" lon="21.807588"><ele>20.4</ele><time>1970-01-01T00:14:22Z</time></trkpt>
			<trkpt lat="54.640022" lon="21.807631"><ele>19.2</ele><time>1970-01-01T00:14:23Z</time></trkpt>
			<trkpt lat="54.640435" lon="21.807625"><ele>17.8</ele><time>1970-01-01T00:14:24Z</time></trkpt>
			<trkpt lat="54.641363" lon="21.807491"><ele>16.4</ele><time>1970-01-01T00:14:25Z</time></trkpt>
			<trkpt lat="54.641729" lon="21.807556"><ele>15.8</ele><time>1970-01-01T00:14:26Z</time></trkpt>
			<trkpt lat="54.642350" lon="21.807883"><ele>13.9</ele><time>1970-01-01T00:14:27Z</time></trkpt>
			<trkpt lat="54.642828" lon="21.808044"><ele>12.8</ele><time>1970-01-01T00:14:28Z</time></trkpt>
			<trkpt lat="54.644315" lon="21.808816"><ele>15.1</ele><time>1970-01-01T00:14:29Z</time></trkpt>
			<trkpt lat="54.644638" lon="21.808907"><ele>15.2</ele><time>1970-01-01T00:14:30Z</time></trkpt>
			<trkpt lat="54.645215" lon="21.809004"><ele>15.4</ele><time>1970-01-01T00:14:31Z</time></trkpt>
			<trkpt lat="54.646234" lon="21.809133"><ele>16.4</ele><time>1970-01-01T00:14:32Z</time></trkpt>
			<trkpt lat="54.646578" lon="21.809251"><ele>17.4</ele><time>1970-01-01T00:14:33Z</time></trkpt>
			<trkpt lat="54.646985" lon="21.809503"><ele>18.4</ele><time>1970-01-01T00:14:34Z</time></trkpt>
			<trkpt lat="54.647171" lon="21.809664"><ele>18.5</ele><time>1970-01-01T00:14:35Z</time></trkpt>
			<trkpt lat="54.647494" lon="21.810055"><ele>18.2</ele><time>1970-01-01T00:14:36Z</time></trkpt>
			<trkpt lat="54.649744" lon="21.813494"><ele>15.9</ele><time>1970-01-01T00:14:37Z</time></trkpt>
			<trkpt lat="54.650132" lon="21.813891"><ele>16.2</ele><time>1970-01-01T00:14:38Z</time></trkpt>
			<trkpt lat="54.650486" lon="21.814079"><ele>16.2</ele><time>1970-01-01T00:14:39Z</time></trkpt>
			<trkpt lat="54.650877" lon="21.814138"><ele>15.8</ele><time>1970-01-01T00:14:40Z</time></trkpt>
			<trkpt lat="54.651119" lon="21.814095"><ele>15.3</ele><time>1970-01-01T00:14:41Z</time></trkpt>
			<trkpt lat="54.651436" lon="21.813987"><ele>14.8</ele><time>1970-01-01T00:14:42Z</time></trkpt>
			<trkpt lat="54.654024" lon="21.813000"><ele>15.2</ele><time>1970-01-01T00:14:43Z</time></trkpt>
			<trkpt lat="54.657158" lon="21.811863"><ele>14.9</ele><time>1970-01-01T00:14:44Z</time></trkpt>
			<trkpt lat="54.657630" lon="21.811649"><ele>15.3</ele><time>1970-01-01T00:14:45Z</time></trkpt>
			<trkpt lat="54.658157" lon="21.811252"><ele>13.5</ele><time>1970-01-01T00:14:46Z</time></trkpt>
			<trkpt lat="54.658741" lon="21.810340"><ele>11.0</ele><time>1970-01-01T00:14:47Z</time></trkpt>
			<trkpt lat="54.659417" lon="21.809031"><ele>11.1</ele><time>1970-01-01T00:14:48Z</time></trkpt>
			<trkpt lat="54.659870" lon="21.807888"><ele>13.0</ele><time>1970-01-01T00:14:49Z</time></trkpt>
			<trkpt lat="54.660205" lon="21.806746"><ele>18.0</ele><time>1970-01-01T00:14:50Z</time></trkpt>
			<trkpt lat="54.661347" lon="21.809004"><ele>17.5</ele><time>1970-01-01T00:14:51Z</time></trkpt>
			<trkpt lat="54.661840" lon="21.810120"><ele>17.6</ele><time>1970-01-01T00:14:52Z</time></trkpt>
			<trkpt lat="54.662275" lon="21.811295"><ele>17.0</ele><time>1970-01-01T00:14:53Z</time></trkpt>
			<trkpt lat="54.662486" lon="21.811987"><ele>16.7</ele><time>1970-01-01T00:14:54Z</time></trkpt>
			<trkpt lat="54.662666" lon="21.812582"><ele>16.7</ele><time>1970-01-01T00:14:55Z</time></trkpt>
			<trkpt lat="54.662936" lon="21.813730"><ele>16.5</ele><time>1970-01-01T00:14:56Z</time></trkpt>
			<trkpt lat="54.663966" lon="21.815897"><ele>19.6</ele><time>1970-01-01T00:14:57Z</time></trkpt>
			<trkpt lat="54.666736" lon="21.821449"><ele>17.0</ele><time>1970-01-01T00:14:58Z</time></trkpt>
			<trkpt lat="54.671039" lon="21.830242"><ele>14.0</ele><time>1970-01-01T00:14:59Z</time></trkpt>
			<trkpt lat="54.671560" lon="21.831229"><ele>12.7</ele><time>1970-01-01T00:15:00Z</time></trkpt>
			<trkpt lat="54.673031" lon="21.833664"><ele>13.8</ele><time>1970-01-01T00:15:01Z</time></trkpt>
			<trkpt lat="54.673524" lon="21.834700"><ele>13.4</ele><time>1970-01-01T00:15:02Z</time></trkpt>
			<trkpt lat="54.674188" lon="21.836320"><ele>13.7</ele><time>1970-01-01T00:15:03Z</time></trkpt>
			<trkpt lat="54.674637" lon="21.837044"><ele>14.7</ele><time>1970-01-01T00:15:04Z</time></trkpt>
			<trkpt lat="54.675053" lon="21.837612"><ele>14.9</ele><time>1970-01-01T00:15:05Z</time></trkpt>
			<trkpt lat="54.675779" lon="21.838787"><ele>15.4</ele><time>1970-01-01T00:15:06Z</time></trkpt>
			<trkpt lat="54.676232" lon="21.839560"><ele>14.3</ele><time>1970-01-01T00:15:07Z</time></trkpt>
			<trkpt lat="54.676833" lon="21.840810"><ele>14.4</ele><time>1970-01-01T00:15:08Z</time></trkpt>
			<trkpt lat="54.677212" lon="21.841384"><ele>14.7</ele><time>1970-01-01T00:15:09Z</time></trkpt>
			<trkpt lat="54.677519" lon="21.841786"><ele>14.6</ele><time>1970-01-01T00:15:10Z</time></trkpt>
			<trkpt lat="54.678880" lon="21.843218"><ele>16.5</ele><time>1970-01-01T00:15:11Z</time></trkpt>
			<trkpt lat="54.680512" lon="21.844769"><ele>17.4</ele><time>1970-01-01T00:15:12Z</time></trkpt>
			<trkpt lat="54.681724" lon="21.845836"><ele>16.2</ele><time>1970-01-01T00:15:13Z</time></trkpt>
			<trkpt lat="54.681876" lon="21.845911"><ele>16.2</ele><time>1970-01-01T00:15:14Z</time></trkpt>
			<trkpt lat="54.682320" lon="21.845884"><ele>17.3</ele><time>1970-01-01T00:15:15Z</time></trkpt>
			<trkpt lat="54.682649" lon="21.845970"><ele>17.2</ele><time>1970-01-01T00:15:16Z</time></trkpt>
			<trkpt lat="54.684999" lon="21.846930"><ele>15.7</ele><time>1970-01-01T00:15:17Z</time></trkpt>
			<trkpt lat="54.686237" lon="21.847365"><ele>18.8</ele><time>1970-01-01T00:15:18Z</time></trkpt>
			<trkpt lat="54.686392" lon="21.847483"><ele>19.3</ele><time>1970-01-01T00:15:19Z</time></trkpt>
			<trkpt lat="54.686919" lon="21.848116"><ele>19.2</ele><time>1970-01-01T00:15:20Z</time></trkpt>
			<trkpt lat="54.687130" lon="21.848427"><ele>18.8</ele><time>1970-01-01T00:15:21Z</time></trkpt>
			<trkpt lat="54.689387" lon="21.850369"><ele>19.4</ele><time>1970-01-01T00:15:22Z</time></trkpt>
			<trkpt lat="54.690516" lon="21.852483"><ele>20.2</ele><time>1970-01-01T00:15:23Z</time></trkpt>
			<trkpt lat="54.690795" lon="21.852944"><ele>20.9</ele><time>1970-01-01T00:15:24Z</time></trkpt>
			<trkpt lat="54.690968" lon="21.853094"><ele>21.5</ele><time>1970-01-01T00:15:25Z</time></trkpt>
			<trkpt lat="54.691123" lon="21.853309"><ele>21.9</ele><time>1970-01-01T00:15:26Z</time></trkpt>
			<trkpt lat="54.691247" lon="21.853620"><ele>22.1</ele><time>1970-01-01T00:15:27Z</time></trkpt>
			<trkpt lat="54.691520" lon="21.854585"><ele>22.6</ele><time>1970-01-01T00:15:28Z</time></trkpt>
			<trkpt lat="54.691762" lon="21.855830"><ele>23.3</ele><time>1970-01-01T00:15:29Z</time></trkpt>
			<trkpt lat="54.692227" lon="21.858888"><ele>19.4</ele><time>1970-01-01T00:15:30Z</time></trkpt>
			<trkpt lat="54.692370" lon="21.859596"><ele>17.8</ele><time>1970-01-01T00:15:31Z</time></trkpt>
			<trkpt lat="54.692550" lon="21.860164"><ele>16.8</ele><time>1970-01-01T00:15:32Z</time></trkpt>
			<trkpt lat="54.692791" lon="21.860636"><ele>16.9</ele><time>1970-01-01T00:15:33Z</time></trkpt>
			<trkpt lat="54.693359" lon="21.861484"><ele>17.7</ele><time>1970-01-01T00:15:34Z</time></trkpt>
			<trkpt lat="54.695200" lon="21.864016"><ele>17.6</ele><time>1970-01-01T00:15:35Z</time></trkpt>
			<trkpt lat="54.695399" lon="21.864354"><ele>18.4</ele><time>1970-01-01T00:15:36Z</time></trkpt>
			<trkpt lat="54.696967" lon="21.867589"><ele>17.7</ele><time>1970-01-01T00:15:37Z</time></trkpt>
			<trkpt lat="54.697284" lon="21.868163"><ele>18.4</ele><time>1970-01-01T00:15:38Z</time></trkpt>
			<trkpt lat="54.698211" lon="21.869718"><ele>17.6</ele><time>1970-01-01T00:15:39Z</time></trkpt>
			<trkpt lat="54.701565" lon="21.875024"><ele>19.2</ele><time>1970-01-01T00:15:40Z</time></trkpt>
			<trkpt lat="54.702082" lon="21.876091"><ele>20.6</ele><time>1970-01-01T00:15:41Z</time></trkpt>
			<trkpt lat="54.702690" lon="21.877556"><ele>20.4</ele><time>1970-01-01T00:15:42Z</time></trkpt>
			<trkpt lat="54.702835" lon="21.878098"><ele>19.7</ele><time>1970-01-01T00:15:43Z</time></trkpt>
			<trkpt lat="54.703096" lon="21.879364"><ele>16.6</ele><time>1970-01-01T00:15:44Z</time></trkpt>
			<trkpt lat="54.704252" lon="21.885645"><ele>19.1</ele><time>1970-01-01T00:15:45Z</time></trkpt>
			<trkpt lat="54.704466" lon="21.886439"><ele>19.4</ele><time>1970-01-01T00:15:46Z</time></trkpt>
			<trkpt lat="54.705188" lon="21.888312"><ele>19.0</ele><time>1970-01-01T00:15:47Z</time></trkpt>
			<trkpt lat="54.706394" lon="21.890763"><ele>19.8</ele><time>1970-01-01T00:15:48Z</time></trkpt>
			<trkpt lat="54.706781" lon="21.891353"><ele>21.3</ele><time>1970-01-01T00:15:49Z</time></trkpt>
			<trkpt lat="54.707788" lon="21.892576"><ele>24.2</ele><time>1970-01-01T00:15:50Z</time></trkpt>
			<trkpt lat="54.708362" lon="21.893515"><ele>26.3</ele><time>1970-01-01T00:15:51Z</time></trkpt>
			<trkpt lat="54.708600" lon="21.893971"><ele>26.4</ele><time>1970-01-01T00:15:52Z</time></trkpt>
			<trkpt lat="54.708991" lon="21.895151"><ele>24.6</ele><time>1970-01-01T00:15:53Z</time></trkpt>
			<trkpt lat="54.709682" lon="21.898043"><ele>20.3</ele><time>1970-01-01T00:15:54Z</time></trkpt>
			<trkpt lat="54.710506" lon="21.899888"><ele>19.3</ele><time>1970-01-01T00:15:55Z</time></trkpt>
			<trkpt lat="54.710661" lon="21.900129"><ele>19.3</ele><time>1970-01-01T00:15:56Z</time></trkpt>
			<trkpt lat="54.711396" lon="21.900939"><ele>19.2</ele><time>1970-01-01T00:15:57Z</time></trkpt>
			<trkpt lat="54.716710" lon="21.904914"><ele>17.7</ele><time>1970-01-01T00:15:58Z</time></trkpt>
			<trkpt lat="54.718483" lon="21.906695"><ele>19.2</ele><time>1970-01-01T00:15:59Z</time></trkpt>
			<trkpt lat="54.718851" lon="21.906953"><ele>19.4</ele><time>1970-01-01T00:16:00Z</time></trkpt>
			<trkpt lat="54.719920" lon="21.907580"><ele>20.5</ele><time>1970-01-01T00:16:01Z</time></trkpt>
			<trkpt lat="54.721079" lon="21.908337"><ele>21.1</ele><time>1970-01-01T00:16:02Z</time></trkpt>
			<trkpt lat="54.721609" lon="21.908707"><ele>21.4</ele><time>1970-01-01T00:16:03Z</time></trkpt>
			<trkpt lat="54.723325" lon="21.910048"><ele>18.8</ele><time>1970-01-01T00:16:04Z</time></trkpt>
			<trkpt lat="54.724143" lon="21.910708"><ele>18.4</ele><time>1970-01-01T00:16:05Z</time></trkpt>
			<trkpt lat="54.726020" lon="21.912489"><ele>15.5</ele><time>1970-01-01T00:16:06Z</time></trkpt>
			<trkpt lat="54.726225" lon="21.912591"><ele>15.8</ele><time>1970-01-01T00:16:07Z</time></trkpt>
			<trkpt lat="54.726436" lon="21.912639"><ele>16.2</ele><time>1970-01-01T00:16:08Z</time></trkpt>
			<trkpt lat="54.726705" lon="21.912612"><ele>16.8</ele><time>1970-01-01T00:16:09Z</time></trkpt>
			<trkpt lat="54.728037" lon="21.912333"><ele>21.4</ele><time>1970-01-01T00:16:10Z</time></trkpt>
			<trkpt lat="54.728307" lon="21.912323"><ele>22.3</ele><time>1970-01-01T00:16:11Z</time></trkpt>
			<trkpt lat="54.730698" lon="21.913240"><ele>26.8</ele><time>1970-01-01T00:16:12Z</time></trkpt>
			<trkpt lat="54.731138" lon="21.913712"><ele>27.1</ele><time>1970-01-01T00:16:13Z</time></trkpt>
			<trkpt lat="54.733024" lon="21.916158"><ele>24.6</ele><time>1970-01-01T00:16:14Z</time></trkpt>
			<trkpt lat="54.733452" lon="21.916786"><ele>24.6</ele><time>1970-01-01T00:16:15Z</time></trkpt>
			<trkpt lat="54.736059" lon="21.921662"><ele>14.9</ele><time>1970-01-01T00:16:16Z</time></trkpt>
			<trkpt lat="54.740739" lon="21.928346"><ele>17.7</ele><time>1970-01-01T00:16:17Z</time></trkpt>
			<trkpt lat="54.742256" lon="21.930395"><ele>18.6</ele><time>1970-01-01T00:16:18Z</time></trkpt>
			<trkpt lat="54.743161" lon="21.932568"><ele>17.5</ele><time>1970-01-01T00:16:19Z</time></trkpt>
			<trkpt lat="54.743740" lon="21.933550"><ele>15.7</ele><time>1970-01-01T00:16:20Z</time></trkpt>
			<trkpt lat="54.744244" lon="21.934274"><ele>15.3</ele><time>1970-01-01T00:16:21Z</time></trkpt>
			<trkpt lat="54.746755" lon="21.937380"><ele>16.0</ele><time>1970-01-01T00:16:22Z</time></trkpt>
			<trkpt lat="54.749019" lon="21.939885"><ele>15.3</ele><time>1970-01-01T00:16:23Z</time></trkpt>
			<trkpt lat="54.749505" lon="21.940368"><ele>15.6</ele><time>1970-01-01T00:16:24Z</time></trkpt>
			<trkpt lat="54.749802" lon="21.940759"><ele>15.0</ele><time>1970-01-01T00:16:25Z</time></trkpt>
			<trkpt lat="54.750000" lon="21.941172"><ele>14.6</ele><time>1970-01-01T00:16:26Z</time></trkpt>
			<trkpt lat="54.750325" lon="21.942058"><ele>13.8</ele><time>1970-01-01T00:16:27Z</time></trkpt>
			<trkpt lat="54.750644" lon="21.942680"><ele>12.8</ele><time>1970-01-01T00:16:28Z</time></trkpt>
			<trkpt lat="54.752929" lon="21.945239"><ele>16.3</ele><time>1970-01-01T00:16:29Z</time></trkpt>
			<trkpt lat="54.755303" lon="21.949160"><ele>16.0</ele><time>1970-01-01T00:16:30Z</time></trkpt>
			<trkpt lat="54.759485" lon="21.955474"><ele>17.9</ele><time>1970-01-01T00:16:31Z</time></trkpt>
			<trkpt lat="54.764781" lon="21.963703"><ele>15.3</ele><time>1970-01-01T00:16:32Z</time></trkpt>
			<trkpt lat="54.764976" lon="21.964046"><ele>15.3</ele><time>1970-01-01T00:16:33Z</time></trkpt>
			<trkpt lat="54.765481" lon="21.964658"><ele>16.1</ele><time>1970-01-01T00:16:34Z</time></trkpt>
			<trkpt lat="54.766660" lon="21.965516"><ele>15.4</ele><time>1970-01-01T00:16:35Z</time></trkpt>
			<trkpt lat="54.766861" lon="21.965720"><ele>15.8</ele><time>1970-01-01T00:16:36Z</time></trkpt>
			<trkpt lat="54.767201" lon="21.966230"><ele>16.7</ele><time>1970-01-01T00:16:37Z</time></trkpt>
			<trkpt lat="54.767523" lon="21.966804"><ele>17.9</ele><time>1970-01-01T00:16:38Z</time></trkpt>
			<trkpt lat="54.768736" lon="21.969277"><ele>18.7</ele><time>1970-01-01T00:16:39Z</time></trkpt>
			<trkpt lat="54.769293" lon="21.970081"><ele>19.2</ele><time>1970-01-01T00:16:40Z</time></trkpt>
			<trkpt lat="54.770253" lon="21.972731"><ele>18.0</ele><time>1970-01-01T00:16:41Z</time></trkpt>
			<trkpt lat="54.770670" lon="21.974249"><ele>17.0</ele><time>1970-01-01T00:16:42Z</time></trkpt>
			<trkpt lat="54.771856" lon="21.977431"><ele>17.3</ele><time>1970-01-01T00:16:43Z</time></trkpt>
			<trkpt lat="54.773861" lon="21.981744"><ele>19.9</ele><time>1970-01-01T00:16:44Z</time></trkpt>
			<trkpt lat="54.775225" lon="21.985949"><ele>18.7</ele><time>1970-01-01T00:16:45Z</time></trkpt>
			<trkpt lat="54.775915" lon="21.987435"><ele>19.5</ele><time>1970-01-01T00:16:46Z</time></trkpt>
			<trkpt lat="54.777159" lon="21.989592"><ele>19.5</ele><time>1970-01-01T00:16:47Z</time></trkpt>
			<trkpt lat="54.777676" lon="21.990911"><ele>19.4</ele><time>1970-01-01T00:16:48Z</time></trkpt>
			<trkpt lat="54.779102" lon="21.993685"><ele>17.9</ele><time>1970-01-01T00:16:49Z</time></trkpt>
			<trkpt lat="54.779479" lon="21.994500"><ele>18.1</ele><time>1970-01-01T00:16:50Z</time></trkpt>
			<trkpt lat="54.779888" lon="21.995782"><ele>15.9</ele><time>1970-01-01T00:16:51Z</time></trkpt>
			<trkpt lat="54.781317" lon="22.001860"><ele>13.7</ele><time>1970-01-01T00:16:52Z</time></trkpt>
			<trkpt lat="54.781540" lon="22.002450"><ele>12.9</ele><time>1970-01-01T00:16:53Z</time></trkpt>
			<trkpt lat="54.782121" lon="22.003550"><ele>12.4</ele><time>1970-01-01T00:16:54Z</time></trkpt>
			<trkpt lat="54.787720" lon="22.013592"><ele>17.7</ele><time>1970-01-01T00:16:55Z</time></trkpt>
			<trkpt lat="54.789347" lon="22.016961"><ele>17.6</ele><time>1970-01-01T00:16:56Z</time></trkpt>
			<trkpt lat="54.792146" lon="22.023060"><ele>18.7</ele><time>1970-01-01T00:16:57Z</time></trkpt>
			<trkpt lat="54.793124" lon="22.025056"><ele>21.6</ele><time>1970-01-01T00:16:58Z</time></trkpt>
			<trkpt lat="54.794723" lon="22.027824"><ele>21.4</ele><time>1970-01-01T00:16:59Z</time></trkpt>
			<trkpt lat="54.802741" lon="22.041948"><ele>18.0</ele><time>1970-01-01T00:17:00Z</time></trkpt>
			<trkpt lat="54.803248" lon="22.042662"><ele>19.4</ele><time>1970-01-01T00:17:01Z</time></trkpt>
			<trkpt lat="54.806801" lon="22.046717"><ele>27.6</ele><time>1970-01-01T00:17:02Z</time></trkpt>
			<trkpt lat="54.811855" lon="22.052629"><ele>20.5</ele><time>1970-01-01T00:17:03Z</time></trkpt>
			<trkpt lat="54.812443" lon="22.053632"><ele>20.4</ele><time>1970-01-01T00:17:04Z</time></trkpt>
			<trkpt lat="54.813512" lon="22.055735"><ele>18.6</ele><time>1970-01-01T00:17:05Z</time></trkpt>
			<trkpt lat="54.814239" lon="22.057060"><ele>20.7</ele><time>1970-01-01T00:17:06Z</time></trkpt>
			<trkpt lat="54.814594" lon="22.057661"><ele>21.7</ele><time>1970-01-01T00:17:07Z</time></trkpt>
			<trkpt lat="54.815778" lon="22.059249"><ele>22.4</ele><time>1970-01-01T00:17:08Z</time></trkpt>
			<trkpt lat="54.815923" lon="22.059522"><ele>22.5</ele><time>1970-01-01T00:17:09Z</time></trkpt>
			<trkpt lat="54.816062" lon="22.059839"><ele>22.2</ele><time>1970-01-01T00:17:10Z</time></trkpt>
			<trkpt lat="54.819889" lon="22.071662"><ele>16.5</ele><time>1970-01-01T00:17:11Z</time></trkpt>
			<trkpt lat="54.822207" lon="22.078979"><ele>13.6</ele><time>1970-01-01T00:17:12Z</time></trkpt>
			<trkpt lat="54.823505" lon="22.082949"><ele>14.9</ele><time>1970-01-01T00:17:13Z</time></trkpt>
			<trkpt lat="54.824726" lon="22.086055"><ele>17.1</ele><time>1970-01-01T00:17:14Z</time></trkpt>
			<trkpt lat="54.825702" lon="22.088699"><ele>18.0</ele><time>1970-01-01T00:17:15Z</time></trkpt>
			<trkpt lat="54.825891" lon="22.088833"><ele>18.9</ele><time>1970-01-01T00:17:16Z</time></trkpt>
			<trkpt lat="54.826054" lon="22.088748"><ele>20.2</ele><time>1970-01-01T00:17:17Z</time></trkpt>
			<trkpt lat="54.826274" lon="22.088517"><ele>22.1</ele><time>1970-01-01T00:17:18Z</time></trkpt>
			<trkpt lat="54.826849" lon="22.088099"><ele>26.3</ele><time>1970-01-01T00:17:19Z</time></trkpt>
			<trkpt lat="54.827093" lon="22.087970"><ele>28.1</ele><time>1970-01-01T00:17:20Z</time></trkpt>
			<trkpt lat="54.827253" lon="22.087991"><ele>29.2</ele><time>1970-01-01T00:17:21Z</time></trkpt>
			<trkpt lat="54.830034" lon="22.086082"><ele>38.7</ele><time>1970-01-01T00:17:22Z</time></trkpt>
			<trkpt lat="54.833356" lon="22.084209"><ele>45.0</ele><time>1970-01-01T00:17:23Z</time></trkpt>
			<trkpt lat="54.844783" lon="22.077938"><ele>39.1</ele><time>1970-01-01T00:17:24Z</time></trkpt>
			<trkpt lat="54.846031" lon="22.077262"><ele>39.0</ele><time>1970-01-01T00:17:25Z</time></trkpt>
			<trkpt lat="54.846417" lon="22.077085"><ele>39.2</ele><time>1970-01-01T00:17:26Z</time></trkpt>
			<trkpt lat="54.846667" lon="22.077016"><ele>39.4</ele><time>1970-01-01T00:17:27Z</time></trkpt>
			<trkpt lat="54.847007" lon="22.077037"><ele>39.5</ele><time>1970-01-01T00:17:28Z</time></trkpt>
			<trkpt lat="54.854422" lon="22.078727"><ele>27.1</ele><time>1970-01-01T00:17:29Z</time></trkpt>
			<trkpt lat="54.861706" lon="22.080454"><ele>32.6</ele><time>1970-01-01T00:17:30Z</time></trkpt>
			<trkpt lat="54.872137" lon="22.082868"><ele>41.2</ele><time>1970-01-01T00:17:31Z</time></trkpt>
			<trkpt lat="54.872437" lon="22.083018"><ele>41.1</ele><time>1970-01-01T00:17:32Z</time></trkpt>
			<trkpt lat="54.877242" lon="22.086634"><ele>43.6</ele><time>1970-01-01T00:17:33Z</time></trkpt>
			<trkpt lat="54.885251" lon="22.092551"><ele>55.7</ele><time>1970-01-01T00:17:34Z</time></trkpt>
			<trkpt lat="54.887463" lon="22.093415"><ele>54.2</ele><time>1970-01-01T00:17:35Z</time></trkpt>
			<trkpt lat="54.888682" lon="22.093962"><ele>51.4</ele><time>1970-01-01T00:17:36Z</time></trkpt>
			<trkpt lat="54.890357" lon="22.094568"><ele>52.0</ele><time>1970-01-01T00:17:37Z</time></trkpt>
			<trkpt lat="54.890912" lon="22.094691"><ele>51.5</ele><time>1970-01-01T00:17:38Z</time></trkpt>
			<trkpt lat="54.891388" lon="22.094756"><ele>49.4</ele><time>1970-01-01T00:17:39Z</time></trkpt>
			<trkpt lat="54.891995" lon="22.094761"><ele>47.7</ele><time>1970-01-01T00:17:40Z</time></trkpt>
			<trkpt lat="54.897974" lon="22.094305"><ele>51.2</ele><time>1970-01-01T00:17:41Z</time></trkpt>
			<trkpt lat="54.900627" lon="22.094150"><ele>50.0</ele><time>1970-01-01T00:17:42Z</time></trkpt>
			<trkpt lat="54.901635" lon="22.094048"><ele>51.7</ele><time>1970-01-01T00:17:43Z</time></trkpt>
			<trkpt lat="54.903064" lon="22.093576"><ele>51.4</ele><time>1970-01-01T00:17:44Z</time></trkpt>
			<trkpt lat="54.910700" lon="22.090829"><ele>52.0</ele><time>1970-01-01T00:17:45Z</time></trkpt>
			<trkpt lat="54.913185" lon="22.089917"><ele>52.1</ele><time>1970-01-01T00:17:46Z</time></trkpt>
			<trkpt lat="54.913521" lon="22.089735"><ele>53.1</ele><time>1970-01-01T00:17:47Z</time></trkpt>
			<trkpt lat="54.916685" lon="22.086344"><ele>60.7</ele><time>1970-01-01T00:17:48Z</time></trkpt>
			<trkpt lat="54.918757" lon="22.084054"><ele>61.1</ele><time>1970-01-01T00:17:49Z</time></trkpt>
			<trkpt lat="54.920656" lon="22.082192"><ele>63.7</ele><time>1970-01-01T00:17:50Z</time></trkpt>
			<trkpt lat="54.920486" lon="22.080621"><ele>66.8</ele><time>1970-01-01T00:17:51Z</time></trkpt>
			<trkpt lat="54.920363" lon="22.079800"><ele>67.8</ele><time>1970-01-01T00:17:52Z</time></trkpt>
			<trkpt lat="54.920005" lon="22.078153"><ele>66.4</ele><time>1970-01-01T00:17:53Z</time></trkpt>
			<trkpt lat="54.919734" lon="22.077214"><ele>66.8</ele><time>1970-01-01T00:17:54Z</time></trkpt>
			<trkpt lat="54.917147" lon="22.059656"><ele>56.1</ele><time>1970-01-01T00:17:55Z</time></trkpt>
			<trkpt lat="54.915347" lon="22.049217"><ele>41.6</ele><time>1970-01-01T00:17:56Z</time></trkpt>
			<trkpt lat="54.912966" lon="22.034980"><ele>31.8</ele><time>1970-01-01T00:17:57Z</time></trkpt>
			<trkpt lat="54.911153" lon="22.020078"><ele>24.2</ele><time>1970-01-01T00:17:58Z</time></trkpt>
			<trkpt lat="54.911141" lon="22.019150"><ele>24.1</ele><time>1970-01-01T00:17:59Z</time></trkpt>
			<trkpt lat="54.911751" lon="21.988530"><ele>25.6</ele><time>1970-01-01T00:18:00Z</time></trkpt>
			<trkpt lat="54.911677" lon="21.987194"><ele>26.0</ele><time>1970-01-01T00:18:01Z</time></trkpt>
			<trkpt lat="54.911578" lon="21.986094"><ele>25.2</ele><time>1970-01-01T00:18:02Z</time></trkpt>
			<trkpt lat="54.910055" lon="21.974292"><ele>24.1</ele><time>1970-01-01T00:18:03Z</time></trkpt>
			<trkpt lat="54.909972" lon="21.972903"><ele>23.0</ele><time>1970-01-01T00:18:04Z</time></trkpt>
			<trkpt lat="54.909411" lon="21.958473"><ele>28.9</ele><time>1970-01-01T00:18:05Z</time></trkpt>
			<trkpt lat="54.909330" lon="21.957496"><ele>29.1</ele><time>1970-01-01T00:18:06Z</time></trkpt>
			<trkpt lat="54.909096" lon="21.956059"><ele>28.3</ele><time>1970-01-01T00:18:07Z</time></trkpt>
			<trkpt lat="54.904569" lon="21.931812"><ele>31.7</ele><time>1970-01-01T00:18:08Z</time></trkpt>
			<trkpt lat="54.904038" lon="21.929725"><ele>34.7</ele><time>1970-01-01T00:18:09Z</time></trkpt>
			<trkpt lat="54.903856" lon="21.929333"><ele>33.1</ele><time>1970-01-01T00:18:10Z</time></trkpt>
			<trkpt lat="54.903301" lon="21.928679"><ele>29.7</ele><time>1970-01-01T00:18:11Z</time></trkpt>
			<trkpt lat="54.903184" lon="21.928491"><ele>28.9</ele><time>1970-01-01T00:18:12Z</time></trkpt>
			<trkpt lat="54.902761" lon="21.927402"><ele>27.9</ele><time>1970-01-01T00:18:13Z</time></trkpt>
			<trkpt lat="54.902946" lon="21.927209"><ele>27.8</ele><time>1970-01-01T00:18:14Z</time></trkpt>
			<trkpt lat="54.903104" lon="21.926919"><ele>27.8</ele><time>1970-01-01T00:18:15Z</time></trkpt>
			<trkpt lat="54.903326" lon="21.926179"><ele>28.0</ele><time>1970-01-01T00:18:16Z</time></trkpt>
			<trkpt lat="54.903862" lon="21.923701"><ele>26.4</ele><time>1970-01-01T00:18:17Z</time></trkpt>
			<trkpt lat="54.904239" lon="21.922306"><ele>26.0</ele><time>1970-01-01T00:18:18Z</time></trkpt>
			<trkpt lat="54.904994" lon="21.920278"><ele>24.7</ele><time>1970-01-01T00:18:19Z</time></trkpt>
			<trkpt lat="54.905099" lon="21.920026"><ele>24.4</ele><time>1970-01-01T00:18:20Z</time></trkpt>
			<trkpt lat="54.905204" lon="21.919876"><ele>24.4</ele><time>1970-01-01T00:18:21Z</time></trkpt>
			<trkpt lat="54.905176" lon="21.918476"><ele>23.6</ele><time>1970-01-01T00:18:22Z</time></trkpt>
			<trkpt lat="54.905047" lon="21.917521"><ele>23.1</ele><time>1970-01-01T00:18:23Z</time></trkpt>
			<trkpt lat="54.904757" lon="21.916646"><ele>23.3</ele><time>1970-01-01T00:18:24Z</time></trkpt>
			<trkpt lat="54.901444" lon="21.910037"><ele>25.4</ele><time>1970-01-01T00:18:25Z</time></trkpt>
			<trkpt lat="54.897638" lon="21.902275"><ele>26.4</ele><time>1970-01-01T00:18:26Z</time></trkpt>
			<trkpt lat="54.894565" lon="21.896782"><ele>24.6</ele><time>1970-01-01T00:18:27Z</time></trkpt>
			<trkpt lat="54.889049" lon="21.887341"><ele>36.2</ele><time>1970-01-01T00:18:28Z</time></trkpt>
			<trkpt lat="54.887475" lon="21.884573"><ele>36.5</ele><time>1970-01-01T00:18:29Z</time></trkpt>
			<trkpt lat="54.885507" lon="21.880410"><ele>43.2</ele><time>1970-01-01T00:18:30Z</time></trkpt>
			<trkpt lat="54.883125" lon="21.873173"><ele>38.3</ele><time>1970-01-01T00:18:31Z</time></trkpt>
			<trkpt lat="54.880474" lon="21.864944"><ele>35.6</ele><time>1970-01-01T00:18:32Z</time></trkpt>
			<trkpt lat="54.878156" lon="21.857933"><ele>40.0</ele><time>1970-01-01T00:18:33Z</time></trkpt>
			<trkpt lat="54.873529" lon="21.844586"><ele>31.9</ele><time>1970-01-01T00:18:34Z</time></trkpt>
			<trkpt lat="54.873249" lon="21.843621"><ele>31.9</ele><time>1970-01-01T00:18:35Z</time></trkpt>
			<trkpt lat="54.872498" lon="21.840692"><ele>29.2</ele><time>1970-01-01T00:18:36Z</time></trkpt>
			<trkpt lat="54.872270" lon="21.840000"><ele>31.7</ele><time>1970-01-01T00:18:37Z</time></trkpt>
			<trkpt lat="54.870807" lon="21.837317"><ele>32.0</ele><time>1970-01-01T00:18:38Z</time></trkpt>
			<trkpt lat="54.870656" lon="21.836958"><ele>32.7</ele><time>1970-01-01T00:18:39Z</time></trkpt>
			<trkpt lat="54.870236" lon="21.834088"><ele>34.7</ele><time>1970-01-01T00:18:40Z</time></trkpt>
			<trkpt lat="54.870045" lon="21.833192"><ele>36.8</ele><time>1970-01-01T00:18:41Z</time></trkpt>
			<trkpt lat="54.869794" lon="21.832468"><ele>37.2</ele><time>1970-01-01T00:18:42Z</time></trkpt>
			<trkpt lat="54.864784" lon="21.824405"><ele>35.3</ele><time>1970-01-01T00:18:43Z</time></trkpt>
			<trkpt lat="54.864621" lon="21.823933"><ele>37.0</ele><time>1970-01-01T00:18:44Z</time></trkpt>
			<trkpt lat="54.864364" lon="21.822270"><ele>38.3</ele><time>1970-01-01T00:18:45Z</time></trkpt>
			<trkpt lat="54.872532" lon="21.807561"><ele>25.0</ele><time>1970-01-01T00:18:46Z</time></trkpt>
			<trkpt lat="54.872755" lon="21.806939"><ele>24.5</ele><time>1970-01-01T00:18:47Z</time></trkpt>
			<trkpt lat="54.876205" lon="21.791146"><ele>20.3</ele><time>1970-01-01T00:18:48Z</time></trkpt>
			<trkpt lat="54.876354" lon="21.790813"><ele>20.6</ele><time>1970-01-01T00:18:49Z</time></trkpt>
			<trkpt lat="54.876539" lon="21.790524"><ele>20.9</ele><time>1970-01-01T00:18:50Z</time></trkpt>
			<trkpt lat="54.876820" lon="21.789971"><ele>20.8</ele><time>1970-01-01T00:18:51Z</time></trkpt>
			<trkpt lat="54.880572" lon="21.781340"><ele>24.8</ele><time>1970-01-01T00:18:52Z</time></trkpt>
			<trkpt lat="54.880665" lon="21.780846"><ele>25.3</ele><time>1970-01-01T00:18:53Z</time></trkpt>
			<trkpt lat="54.880656" lon="21.780476"><ele>25.0</ele><time>1970-01-01T00:18:54Z</time></trkpt>
			<trkpt lat="54.880122" lon="21.777273"><ele>20.6</ele><time>1970-01-01T00:18:55Z</time></trkpt>
			<trkpt lat="54.880039" lon="21.775691"><ele>19.8</ele><time>1970-01-01T00:18:56Z</time></trkpt>
			<trkpt lat="54.879931" lon="21.767542"><ele>19.8</ele><time>1970-01-01T00:18:57Z</time></trkpt>
			<trkpt lat="54.879986" lon="21.766673"><ele>21.0</ele><time>1970-01-01T00:18:58Z</time></trkpt>
			<trkpt lat="54.880745" lon="21.759163"><ele>20.8</ele><time>1970-01-01T00:18:59Z</time></trkpt>
			<trkpt lat="54.881038" lon="21.755537"><ele>18.7</ele><time>1970-01-01T00:19:00Z</time></trkpt>
			<trkpt lat="54.881153" lon="21.754625"><ele>18.6</ele><time>1970-01-01T00:19:01Z</time></trkpt>
			<trkpt lat="54.881359" lon="21.753611"><ele>17.5</ele><time>1970-01-01T00:19:02Z</time></trkpt>
			<trkpt lat="54.882390" lon="21.748987"><ele>15.2</ele><time>1970-01-01T00:19:03Z</time></trkpt>
			<trkpt lat="54.882634" lon="21.748048"><ele>15.7</ele><time>1970-01-01T00:19:04Z</time></trkpt>
			<trkpt lat="54.882865" lon="21.747372"><ele>15.6</ele><time>1970-01-01T00:19:05Z</time></trkpt>
			<trkpt lat="54.884029" lon="21.744652"><ele>15.9</ele><time>1970-01-01T00:19:06Z</time></trkpt>
			<trkpt lat="54.884084" lon="21.744245"><ele>15.9</ele><time>1970-01-01T00:19:07Z</time></trkpt>
			<trkpt lat="54.883788" lon="21.742448"><ele>16.0</ele><time>1970-01-01T00:19:08Z</time></trkpt>
			<trkpt lat="54.883618" lon="21.741171"><ele>16.0</ele><time>1970-01-01T00:19:09Z</time></trkpt>
			<trkpt lat="54.883590" lon="21.740726"><ele>16.2</ele><time>1970-01-01T00:19:10Z</time></trkpt>
			<trkpt lat="54.883686" lon="21.739084"><ele>17.2</ele><time>1970-01-01T00:19:11Z</time></trkpt>
			<trkpt lat="54.884087" lon="21.734857"><ele>16.1</ele><time>1970-01-01T00:19:12Z</time></trkpt>
			<trkpt lat="54.884174" lon="21.732631"><ele>16.0</ele><time>1970-01-01T00:19:13Z</time></trkpt>
			<trkpt lat="54.883615" lon="21.717632"><ele>16.3</ele><time>1970-01-01T00:19:14Z</time></trkpt>
			<trkpt lat="54.883982" lon="21.708030"><ele>12.3</ele><time>1970-01-01T00:19:15Z</time></trkpt>
			<trkpt lat="54.883942" lon="21.707085"><ele>11.9</ele><time>1970-01-01T00:19:16Z</time></trkpt>
			<trkpt lat="54.883785" lon="21.705911"><ele>12.0</ele><time>1970-01-01T00:19:17Z</time></trkpt>
			<trkpt lat="54.883365" lon="21.703969"><ele>10.2</ele><time>1970-01-01T00:19:18Z</time></trkpt>
			<trkpt lat="54.883229" lon="21.702746"><ele>11.3</ele><time>1970-01-01T00:19:19Z</time></trkpt>
			<trkpt lat="54.883282" lon="21.700160"><ele>11.4</ele><time>1970-01-01T00:19:20Z</time></trkpt>
			<trkpt lat="54.883331" lon="21.699688"><ele>11.7</ele><time>1970-01-01T00:19:21Z</time></trkpt>
			<trkpt lat="54.883751" lon="21.697574"><ele>13.8</ele><time>1970-01-01T00:19:22Z</time></trkpt>
			<trkpt lat="54.883859" lon="21.696099"><ele>14.1</ele><time>1970-01-01T00:19:23Z</time></trkpt>
			<trkpt lat="54.884032" lon="21.695058"><ele>14.1</ele><time>1970-01-01T00:19:24Z</time></trkpt>
			<trkpt lat="54.884066" lon="21.694495"><ele>14.7</ele><time>1970-01-01T00:19:25Z</time></trkpt>
			<trkpt lat="54.883992" lon="21.693905"><ele>15.2</ele><time>1970-01-01T00:19:26Z</time></trkpt>
			<trkpt lat="54.883628" lon="21.692253"><ele>16.9</ele><time>1970-01-01T00:19:27Z</time></trkpt>
			<trkpt lat="54.883371" lon="21.690788"><ele>17.0</ele><time>1970-01-01T00:19:28Z</time></trkpt>
			<trkpt lat="54.883017" lon="21.687446"><ele>16.2</ele><time>1970-01-01T00:19:29Z</time></trkpt>
			<trkpt lat="54.881825" lon="21.674904"><ele>11.8</ele><time>1970-01-01T00:19:30Z</time></trkpt>
			<trkpt lat="54.880690" lon="21.667061"><ele>4.6</ele><time>1970-01-01T00:19:31Z</time></trkpt>
			<trkpt lat="54.880569" lon="21.666359"><ele>4.7</ele><time>1970-01-01T00:19:32Z</time></trkpt>
			<trkpt lat="54.879813" lon="21.663360"><ele>4.2</ele><time>1970-01-01T00:19:33Z</time></trkpt>
			<trkpt lat="54.876844" lon="21.655233"><ele>9.8</ele><time>1970-01-01T00:19:34Z</time></trkpt>
			<trkpt lat="54.876730" lon="21.654702"><ele>9.9</ele><time>1970-01-01T00:19:35Z</time></trkpt>
			<trkpt lat="54.876764" lon="21.654428"><ele>9.9</ele><time>1970-01-01T00:19:36Z</time></trkpt>
			<trkpt lat="54.876060" lon="21.653409"><ele>11.4</ele><time>1970-01-01T00:19:37Z</time></trkpt>
			<trkpt lat="54.875986" lon="21.653216"><ele>11.6</ele><time>1970-01-01T00:19:38Z</time></trkpt>
			<trkpt lat="54.876202" lon="21.650609"><ele>13.6</ele><time>1970-01-01T00:19:39Z</time></trkpt>
			<trkpt lat="54.876298" lon="21.650147"><ele>14.1</ele><time>1970-01-01T00:19:40Z</time></trkpt>
			<trkpt lat="54.876366" lon="21.649584"><ele>14.3</ele><time>1970-01-01T00:19:41Z</time></trkpt>
			<trkpt lat="54.876517" lon="21.649552"><ele>14.7</ele><time>1970-01-01T00:19:42Z</time></trkpt>
			<trkpt lat="54.876813" lon="21.648549"><ele>13.7</ele><time>1970-01-01T00:19:43Z</time></trkpt>
			<trkpt lat="54.879094" lon="21.644676"><ele>6.5</ele><time>1970-01-01T00:19:44Z</time></trkpt>
			<trkpt lat="54.880551" lon="21.642358"><ele>5.0</ele><time>1970-01-01T00:19:45Z</time></trkpt>
			<trkpt lat="54.881066" lon="21.642203"><ele>4.6</ele><time>1970-01-01T00:19:46Z</time></trkpt>
			<trkpt lat="54.881683" lon="21.642171"><ele>3.8</ele><time>1970-01-01T00:19:47Z</time></trkpt>
			<trkpt lat="54.883621" lon="21.648533"><ele>4.4</ele><time>1970-01-01T00:19:48Z</time></trkpt>
			<trkpt lat="54.883695" lon="21.648999"><ele>3.8</ele><time>1970-01-01T00:19:49Z</time></trkpt>
			<trkpt lat="54.887429" lon="21.648602"><ele>6.7</ele><time>1970-01-01T00:19:50Z</time></trkpt>
			<trkpt lat="54.887880" lon="21.648586"><ele>7.8</ele><time>1970-01-01T00:19:51Z</time></trkpt>
			<trkpt lat="54.888632" lon="21.648758"><ele>8.8</ele><time>1970-01-01T00:19:52Z</time></trkpt>
			<trkpt lat="54.888935" lon="21.648780"><ele>8.6</ele><time>1970-01-01T00:19:53Z</time></trkpt>
			<trkpt lat="54.889404" lon="21.648683"><ele>8.7</ele><time>1970-01-01T00:19:54Z</time></trkpt>
			<trkpt lat="54.889860" lon="21.648399"><ele>9.0</ele><time>1970-01-01T00:19:55Z</time></trkpt>
			<trkpt lat="54.890767" lon="21.647471"><ele>7.9</ele><time>1970-01-01T00:19:56Z</time></trkpt>
			<trkpt lat="54.893473" lon="21.644488"><ele>5.8</ele><time>1970-01-01T00:19:57Z</time></trkpt>
			<trkpt lat="54.895337" lon="21.642525"><ele>5.9</ele><time>1970-01-01T00:19:58Z</time></trkpt>
			<trkpt lat="54.896302" lon="21.641452"><ele>5.8</ele><time>1970-01-01T00:19:59Z</time></trkpt>
			<trkpt lat="54.899014" lon="21.637595"><ele>5.9</ele><time>1970-01-01T00:20:00Z</time></trkpt>
			<trkpt lat="54.901580" lon="21.633861"><ele>4.6</ele><time>1970-01-01T00:20:01Z</time></trkpt>
			<trkpt lat="54.904171" lon="21.631023"><ele>2.0</ele><time>1970-01-01T00:20:02Z</time></trkpt>
			<trkpt lat="54.908162" lon="21.626077"><ele>1.2</ele><time>1970-01-01T00:20:03Z</time></trkpt>
			<trkpt lat="54.912513" lon="21.620804"><ele>0.9</ele><time>1970-01-01T00:20:04Z</time></trkpt>
			<trkpt lat="54.915100" lon="21.617736"><ele>1.0</ele><time>1970-01-01T00:20:05Z</time></trkpt>
			<trkpt lat="54.917406" lon="21.615434"><ele>1.4</ele><time>1970-01-01T00:20:06Z</time></trkpt>
			<trkpt lat="54.917693" lon="21.615080"><ele>1.3</ele><time>1970-01-01T00:20:07Z</time></trkpt>
			<trkpt lat="54.919386" lon="21.612452"><ele>4.2</ele><time>1970-01-01T00:20:08Z</time></trkpt>
			<trkpt lat="54.920107" lon="21.611668"><ele>4.0</ele><time>1970-01-01T00:20:09Z</time></trkpt>
			<trkpt lat="54.921948" lon="21.609850"><ele>2.2</ele><time>1970-01-01T00:20:10Z</time></trkpt>
			<trkpt lat="54.922351" lon="21.609512"><ele>1.3</ele><time>1970-01-01T00:20:11Z</time></trkpt>
			<trkpt lat="54.922734" lon="21.609372"><ele>1.1</ele><time>1970-01-01T00:20:12Z</time></trkpt>
			<trkpt lat="54.934909" lon="21.608450"><ele>0.1</ele><time>1970-01-01T00:20:13Z</time></trkpt>
			<trkpt lat="54.940545" lon="21.607988"><ele>-0.9</ele><time>1970-01-01T00:20:14Z</time></trkpt>
			<trkpt lat="54.941229" lon="21.607924"><ele>0.2</ele><time>1970-01-01T00:20:15Z</time></trkpt>
			<trkpt lat="54.941689" lon="21.607790"><ele>1.2</ele><time>1970-01-01T00:20:16Z</time></trkpt>
			<trkpt lat="54.942055" lon="21.607522"><ele>4.2</ele><time>1970-01-01T00:20:17Z</time></trkpt>
			<trkpt lat="54.943186" lon="21.606508"><ele>8.2</ele><time>1970-01-01T00:20:18Z</time></trkpt>
			<trkpt lat="54.963517" lon="21.588038"><ele>-0.3</ele><time>1970-01-01T00:20:19Z</time></trkpt>
			<trkpt lat="54.964164" lon="21.587647"><ele>-0.0</ele><time>1970-01-01T00:20:20Z</time></trkpt>
			<trkpt lat="54.965054" lon="21.587191"><ele>-0.7</ele><time>1970-01-01T00:20:21Z</time></trkpt>
			<trkpt lat="54.972346" lon="21.583484"><ele>-2.1</ele><time>1970-01-01T00:20:22Z</time></trkpt>
			<trkpt lat="54.976613" lon="21.581365"><ele>-2.4</ele><time>1970-01-01T00:20:23Z</time></trkpt>
			<trkpt lat="54.977244" lon="21.580941"><ele>-2.3</ele><time>1970-01-01T00:20:24Z</time></trkpt>
			<trkpt lat="54.984241" lon="21.573710"><ele>-3.0</ele><time>1970-01-01T00:20:25Z</time></trkpt>
			<trkpt lat="54.984638" lon="21.573613"><ele>-3.0</ele><time>1970-01-01T00:20:26Z</time></trkpt>
			<trkpt lat="54.988135" lon="21.572959"><ele>-0.9</ele><time>1970-01-01T00:20:27Z</time></trkpt>
			<trkpt lat="54.988477" lon="21.572964"><ele>-1.2</ele><time>1970-01-01T00:20:28Z</time></trkpt>
			<trkpt lat="54.997663" lon="21.575330"><ele>-3.1</ele><time>1970-01-01T00:20:29Z</time></trkpt>
			<trkpt lat="54.997943" lon="21.575308"><ele>-3.2</ele><time>1970-01-01T00:20:30Z</time></trkpt>
			<trkpt lat="54.998161" lon="21.575158"><ele>-3.1</ele><time>1970-01-01T00:20:31Z</time></trkpt>
			<trkpt lat="55.008896" lon="21.564419"><ele>-1.1</ele><time>1970-01-01T00:20:32Z</time></trkpt>
			<trkpt lat="55.011956" lon="21.561441"><ele>0.1</ele><time>1970-01-01T00:20:33Z</time></trkpt>
			<trkpt lat="55.012821" lon="21.564810"><ele>-0.3</ele><time>1970-01-01T00:20:34Z</time></trkpt>
			<trkpt lat="55.012984" lon="21.565728"><ele>-0.6</ele><time>1970-01-01T00:20:35Z</time></trkpt>
			<trkpt lat="55.013082" lon="21.566918"><ele>-1.2</ele><time>1970-01-01T00:20:36Z</time></trkpt>
			<trkpt lat="55.013107" lon="21.569681"><ele>-0.9</ele><time>1970-01-01T00:20:37Z</time></trkpt>
			<trkpt lat="55.012824" lon="21.574574"><ele>-2.3</ele><time>1970-01-01T00:20:38Z</time></trkpt>
			<trkpt lat="55.012485" lon="21.579031"><ele>-1.2</ele><time>1970-01-01T00:20:39Z</time></trkpt>
			<trkpt lat="55.012492" lon="21.579579"><ele>-1.0</ele><time>1970-01-01T00:20:40Z</time></trkpt>
			<trkpt lat="55.012701" lon="21.582926"><ele>-3.0</ele><time>1970-01-01T00:20:41Z</time></trkpt>
			<trkpt lat="55.012858" lon="21.587877"><ele>-3.2</ele><time>1970-01-01T00:20:42Z</time></trkpt>
			<trkpt lat="55.012864" lon="21.592641"><ele>-1.3</ele><time>1970-01-01T00:20:43Z</time></trkpt>
			<trkpt lat="55.012931" lon="21.595892"><ele>-1.6</ele><time>1970-01-01T00:20:44Z</time></trkpt>
			<trkpt lat="55.013098" lon="21.597651"><ele>-1.5</ele><time>1970-01-01T00:20:45Z</time></trkpt>
			<trkpt lat="55.013116" lon="21.598231"><ele>-2.1</ele><time>1970-01-01T00:20:46Z</time></trkpt>
			<trkpt lat="55.013039" lon="21.600409"><ele>-2.0</ele><time>1970-01-01T00:20:47Z</time></trkpt>
			<trkpt lat="55.013224" lon="21.603466"><ele>2.8</ele><time>1970-01-01T00:20:48Z</time></trkpt>
			<trkpt lat="55.013371" lon="21.604850"><ele>3.5</ele><time>1970-01-01T00:20:49Z</time></trkpt>
			<trkpt lat="55.013768" lon="21.607913"><ele>10.2</ele><time>1970-01-01T00:20:50Z</time></trkpt>
			<trkpt lat="55.013971" lon="21.611373"><ele>16.3</ele><time>1970-01-01T00:20:51Z</time></trkpt>
			<trkpt lat="55.014146" lon="21.612328"><ele>16.8</ele><time>1970-01-01T00:20:52Z</time></trkpt>
			<trkpt lat="55.014703" lon="21.613648"><ele>18.0</ele><time>1970-01-01T00:20:53Z</time></trkpt>
			<trkpt lat="55.015340" lon="21.614935"><ele>19.8</ele><time>1970-01-01T00:20:54Z</time></trkpt>
			<trkpt lat="55.017173" lon="21.618497"><ele>13.8</ele><time>1970-01-01T00:20:55Z</time></trkpt>
			<trkpt lat="55.018151" lon="21.620241"><ele>7.5</ele><time>1970-01-01T00:20:56Z</time></trkpt>
			<trkpt lat="55.018911" lon="21.621711"><ele>11.7</ele><time>1970-01-01T00:20:57Z</time></trkpt>
			<trkpt lat="55.020990" lon="21.624929"><ele>14.5</ele><time>1970-01-01T00:20:58Z</time></trkpt>
			<trkpt lat="55.021312" lon="21.625235"><ele>16.2</ele><time>1970-01-01T00:20:59Z</time></trkpt>
			<trkpt lat="55.021666" lon="21.625423"><ele>17.0</ele><time>1970-01-01T00:21:00Z</time></trkpt>
			<trkpt lat="55.025630" lon="21.626185"><ele>10.1</ele><time>1970-01-01T00:21:01Z</time></trkpt>
			<trkpt lat="55.026122" lon="21.626592"><ele>9.6</ele><time>1970-01-01T00:21:02Z</time></trkpt>
			<trkpt lat="55.026454" lon="21.626989"><ele>9.0</ele><time>1970-01-01T00:21:03Z</time></trkpt>
			<trkpt lat="55.028084" lon="21.629087"><ele>2.5</ele><time>1970-01-01T00:21:04Z</time></trkpt>
			<trkpt lat="55.028357" lon="21.629596"><ele>2.0</ele><time>1970-01-01T00:21:05Z</time></trkpt>
			<trkpt lat="55.029732" lon="21.632702"><ele>0.5</ele><time>1970-01-01T00:21:06Z</time></trkpt>
			<trkpt lat="55.032336" lon="21.639311"><ele>0.7</ele><time>1970-01-01T00:21:07Z</time></trkpt>
			<trkpt lat="55.032954" lon="21.640400"><ele>0.5</ele><time>1970-01-01T00:21:08Z</time></trkpt>
			<trkpt lat="55.033399" lon="21.641334"><ele>-0.4</ele><time>1970-01-01T00:21:09Z</time></trkpt>
			<trkpt lat="55.033778" lon="21.642267"><ele>-0.2</ele><time>1970-01-01T00:21:10Z</time></trkpt>
			<trkpt lat="55.036729" lon="21.648887"><ele>-2.4</ele><time>1970-01-01T00:21:11Z</time></trkpt>
			<trkpt lat="55.039947" lon="21.659546"><ele>-1.1</ele><time>1970-01-01T00:21:12Z</time></trkpt>
			<trkpt lat="55.040018" lon="21.660292"><ele>-1.0</ele><time>1970-01-01T00:21:13Z</time></trkpt>
			<trkpt lat="55.040135" lon="21.662652"><ele>-0.8</ele><time>1970-01-01T00:21:14Z</time></trkpt>
			<trkpt lat="55.042483" lon="21.660823"><ele>-2.0</ele><time>1970-01-01T00:21:15Z</time></trkpt>
			<trkpt lat="55.042864" lon="21.660442"><ele>-1.4</ele><time>1970-01-01T00:21:16Z</time></trkpt>
			<trkpt lat="55.043353" lon="21.660061"><ele>-0.2</ele><time>1970-01-01T00:21:17Z</time></trkpt>
			<trkpt lat="55.044005" lon="21.659385"><ele>-0.9</ele><time>1970-01-01T00:21:18Z</time></trkpt>
			<trkpt lat="55.044183" lon="21.659256"><ele>-1.0</ele><time>1970-01-01T00:21:19Z</time></trkpt>
			<trkpt lat="55.044404" lon="21.659235"><ele>-1.0</ele><time>1970-01-01T00:21:20Z</time></trkpt>
			<trkpt lat="55.044681" lon="21.659476"><ele>-1.2</ele><time>1970-01-01T00:21:21Z</time></trkpt>
			<trkpt lat="55.045409" lon="21.660233"><ele>-1.4</ele><time>1970-01-01T00:21:22Z</time></trkpt>
			<trkpt lat="55.046024" lon="21.661241"><ele>-1.7</ele><time>1970-01-01T00:21:23Z</time></trkpt>
			<trkpt lat="55.046516" lon="21.662174"><ele>-2.8</ele><time>1970-01-01T00:21:24Z</time></trkpt>
			<trkpt lat="55.046768" lon="21.662679"><ele>-2.6</ele><time>1970-01-01T00:21:25Z</time></trkpt>
			<trkpt lat="55.046952" lon="21.663231"><ele>-1.7</ele><time>1970-01-01T00:21:26Z</time></trkpt>
			<trkpt lat="55.047084" lon="21.663752"><ele>-1.8</ele><time>1970-01-01T00:21:27Z</time></trkpt>
			<trkpt lat="55.047244" lon="21.664680"><ele>-2.0</ele><time>1970-01-01T00:21:28Z</time></trkpt>
			<trkpt lat="55.047822" lon="21.666037"><ele>-1.9</ele><time>1970-01-01T00:21:29Z</time></trkpt>
			<trkpt lat="55.049844" lon="21.670425"><ele>-1.9</ele><time>1970-01-01T00:21:30Z</time></trkpt>
			<trkpt lat="55.051709" lon="21.674148"><ele>-3.0</ele><time>1970-01-01T00:21:31Z</time></trkpt>
			<trkpt lat="55.052404" lon="21.675977"><ele>-1.8</ele><time>1970-01-01T00:21:32Z</time></trkpt>
			<trkpt lat="55.053768" lon="21.679968"><ele>-2.0</ele><time>1970-01-01T00:21:33Z</time></trkpt>
			<trkpt lat="55.053962" lon="21.680698"><ele>-2.0</ele><time>1970-01-01T00:21:34Z</time></trkpt>
			<trkpt lat="55.054164" lon="21.681771"><ele>-2.1</ele><time>1970-01-01T00:21:35Z</time></trkpt>
			<trkpt lat="55.054595" lon="21.684480"><ele>-2.2</ele><time>1970-01-01T00:21:36Z</time></trkpt>
			<trkpt lat="55.054951" lon="21.686330"><ele>-1.4</ele><time>1970-01-01T00:21:37Z</time></trkpt>
			<trkpt lat="55.055074" lon="21.687296"><ele>-1.0</ele><time>1970-01-01T00:21:38Z</time></trkpt>
			<trkpt lat="55.055440" lon="21.692532"><ele>-0.5</ele><time>1970-01-01T00:21:39Z</time></trkpt>
			<trkpt lat="55.052852" lon="21.692725"><ele>-0.0</ele><time>1970-01-01T00:21:40Z</time></trkpt>
			<trkpt lat="55.051519" lon="21.692859"><ele>0.7</ele><time>1970-01-01T00:21:41Z</time></trkpt>
			<trkpt lat="55.050234" lon="21.692939"><ele>2.3</ele><time>1970-01-01T00:21:42Z</time></trkpt>
			<trkpt lat="55.049076" lon="21.693057"><ele>4.9</ele><time>1970-01-01T00:21:43Z</time></trkpt>
			<trkpt lat="55.048160" lon="21.693283"><ele>3.3</ele><time>1970-01-01T00:21:44Z</time></trkpt>
			<trkpt lat="55.047560" lon="21.693588"><ele>0.3</ele><time>1970-01-01T00:21:45Z</time></trkpt>
			<trkpt lat="55.047084" lon="21.693642"><ele>-0.5</ele><time>1970-01-01T00:21:46Z</time></trkpt>
			<trkpt lat="55.042296" lon="21.693787"><ele>-0.9</ele><time>1970-01-01T00:21:47Z</time></trkpt>
			<trkpt lat="55.041939" lon="21.693583"><ele>-1.4</ele><time>1970-01-01T00:21:48Z</time></trkpt>
			<trkpt lat="55.040897" lon="21.692065"><ele>-1.9</ele><time>1970-01-01T00:21:49Z</time></trkpt>
			<trkpt lat="55.039124" lon="21.689351"><ele>-1.9</ele><time>1970-01-01T00:21:50Z</time></trkpt>
			<trkpt lat="55.038404" lon="21.690204"><ele>-0.4</ele><time>1970-01-01T00:21:51Z</time></trkpt>
			<trkpt lat="55.036876" lon="21.692532"><ele>-2.3</ele><time>1970-01-01T00:21:52Z</time></trkpt>
			<trkpt lat="55.036612" lon="21.693041"><ele>-2.0</ele><time>1970-01-01T00:21:53Z</time></trkpt>
			<trkpt lat="55.034537" lon="21.697912"><ele>-1.4</ele><time>1970-01-01T00:21:54Z</time></trkpt>
			<trkpt lat="55.032419" lon="21.702252"><ele>-0.1</ele><time>1970-01-01T00:21:55Z</time></trkpt>
			<trkpt lat="55.032062" lon="21.702660"><ele>-0.5</ele><time>1970-01-01T00:21:56Z</time></trkpt>
			<trkpt lat="55.025676" lon="21.707976"><ele>6.8</ele><time>1970-01-01T00:21:57Z</time></trkpt>
			<trkpt lat="55.021472" lon="21.711382"><ele>0.7</ele><time>1970-01-01T00:21:58Z</time></trkpt>
			<trkpt lat="55.020073" lon="21.712321"><ele>0.6</ele><time>1970-01-01T00:21:59Z</time></trkpt>
			<trkpt lat="55.019686" lon="21.712734"><ele>0.9</ele><time>1970-01-01T00:22:00Z</time></trkpt>
			<trkpt lat="55.019547" lon="21.712965"><ele>1.1</ele><time>1970-01-01T00:22:01Z</time></trkpt>
			<trkpt lat="55.019357" lon="21.713474"><ele>1.7</ele><time>1970-01-01T00:22:02Z</time></trkpt>
			<trkpt lat="55.016859" lon="21.720668"><ele>3.2</ele><time>1970-01-01T00:22:03Z</time></trkpt>
			<trkpt lat="55.016693" lon="21.721237"><ele>3.4</ele><time>1970-01-01T00:22:04Z</time></trkpt>
			<trkpt lat="55.016506" lon="21.722712"><ele>2.8</ele><time>1970-01-01T00:22:05Z</time></trkpt>
			<trkpt lat="55.016330" lon="21.723109"><ele>2.6</ele><time>1970-01-01T00:22:06Z</time></trkpt>
			<trkpt lat="55.015254" lon="21.724407"><ele>2.4</ele><time>1970-01-01T00:22:07Z</time></trkpt>
			<trkpt lat="55.013974" lon="21.726016"><ele>1.1</ele><time>1970-01-01T00:22:08Z</time></trkpt>
			<trkpt lat="55.013762" lon="21.726328"><ele>1.3</ele><time>1970-01-01T00:22:09Z</time></trkpt>
			<trkpt lat="55.010612" lon="21.732019"><ele>2.6</ele><time>1970-01-01T00:22:10Z</time></trkpt>
			<trkpt lat="55.010409" lon="21.732690"><ele>2.3</ele><time>1970-01-01T00:22:11Z</time></trkpt>
			<trkpt lat="55.009000" lon="21.738001"><ele>1.5</ele><time>1970-01-01T00:22:12Z</time></trkpt>
			<trkpt lat="55.007727" lon="21.743569"><ele>3.2</ele><time>1970-01-01T00:22:13Z</time></trkpt>
			<trkpt lat="55.007462" lon="21.744620"><ele>5.1</ele><time>1970-01-01T00:22:14Z</time></trkpt>
			<trkpt lat="55.007339" lon="21.744840"><ele>5.3</ele><time>1970-01-01T00:22:15Z</time></trkpt>
			<trkpt lat="55.006791" lon="21.745425"><ele>6.3</ele><time>1970-01-01T00:22:16Z</time></trkpt>
			<trkpt lat="55.002933" lon="21.749218"><ele>7.0</ele><time>1970-01-01T00:22:17Z</time></trkpt>
			<trkpt lat="55.002232" lon="21.749872"><ele>8.0</ele><time>1970-01-01T00:22:18Z</time></trkpt>
			<trkpt lat="55.000278" lon="21.751835"><ele>10.0</ele><time>1970-01-01T00:22:19Z</time></trkpt>
			<trkpt lat="54.999955" lon="21.752264"><ele>10.0</ele><time>1970-01-01T00:22:20Z</time></trkpt>
			<trkpt lat="54.994419" lon="21.760209"><ele>13.2</ele><time>1970-01-01T00:22:21Z</time></trkpt>
			<trkpt lat="54.989055" lon="21.768149"><ele>17.6</ele><time>1970-01-01T00:22:22Z</time></trkpt>
			<trkpt lat="54.986676" lon="21.771861"><ele>17.0</ele><time>1970-01-01T00:22:23Z</time></trkpt>
			<trkpt lat="54.986344" lon="21.772435"><ele>17.0</ele><time>1970-01-01T00:22:24Z</time></trkpt>
			<trkpt lat="54.985830" lon="21.773717"><ele>16.4</ele><time>1970-01-01T00:22:25Z</time></trkpt>
			<trkpt lat="54.992342" lon="21.780782"><ele>23.7</ele><time>1970-01-01T00:22:26Z</time></trkpt>
			<trkpt lat="54.992647" lon="21.781324"><ele>23.8</ele><time>1970-01-01T00:22:27Z</time></trkpt>
			<trkpt lat="54.995807" lon="21.788351"><ele>23.8</ele><time>1970-01-01T00:22:28Z</time></trkpt>
			<trkpt lat="55.001986" lon="21.801859"><ele>14.4</ele><time>1970-01-01T00:22:29Z</time></trkpt>
			<trkpt lat="55.002214" lon="21.802309"><ele>15.1</ele><time>1970-01-01T00:22:30Z</time></trkpt>
			<trkpt lat="55.002512" lon="21.802765"><ele>15.8</ele><time>1970-01-01T00:22:31Z</time></trkpt>
			<trkpt lat="55.014703" lon="21.819808"><ele>15.5</ele><time>1970-01-01T00:22:32Z</time></trkpt>
			<trkpt lat="55.018049" lon="21.824566"><ele>16.0</ele><time>1970-01-01T00:22:33Z</time></trkpt>
			<trkpt lat="55.018969" lon="21.826272"><ele>17.6</ele><time>1970-01-01T00:22:34Z</time></trkpt>
			<trkpt lat="55.019458" lon="21.827275"><ele>17.9</ele><time>1970-01-01T00:22:35Z</time></trkpt>
			<trkpt lat="55.019719" lon="21.827903"><ele>17.6</ele><time>1970-01-01T00:22:36Z</time></trkpt>
			<trkpt lat="55.020039" lon="21.827753"><ele>17.3</ele><time>1970-01-01T00:22:37Z</time></trkpt>
			<trkpt lat="55.020215" lon="21.827758"><ele>17.1</ele><time>1970-01-01T00:22:38Z</time></trkpt>
			<trkpt lat="55.020414" lon="21.827919"><ele>17.0</ele><time>1970-01-01T00:22:39Z</time></trkpt>
			<trkpt lat="55.020780" lon="21.828369"><ele>17.1</ele><time>1970-01-01T00:22:40Z</time></trkpt>
			<trkpt lat="55.024080" lon="21.832983"><ele>18.3</ele><time>1970-01-01T00:22:41Z</time></trkpt>
			<trkpt lat="55.030608" lon="21.841367"><ele>29.2</ele><time>1970-01-01T00:22:42Z</time></trkpt>
			<trkpt lat="55.031195" lon="21.842027"><ele>29.7</ele><time>1970-01-01T00:22:43Z</time></trkpt>
			<trkpt lat="55.032981" lon="21.843899"><ele>29.7</ele><time>1970-01-01T00:22:44Z</time></trkpt>
			<trkpt lat="55.052253" lon="21.863866"><ele>14.7</ele><time>1970-01-01T00:22:45Z</time></trkpt>
			<trkpt lat="55.059019" lon="21.869617"><ele>17.6</ele><time>1970-01-01T00:22:46Z</time></trkpt>
			<trkpt lat="55.068564" lon="21.877824"><ele>12.2</ele><time>1970-01-01T00:22:47Z</time></trkpt>
			<trkpt lat="55.072547" lon="21.882706"><ele>18.1</ele><time>1970-01-01T00:22:48Z</time></trkpt>
			<trkpt lat="55.073033" lon="21.883215"><ele>18.1</ele><time>1970-01-01T00:22:49Z</time></trkpt>
			<trkpt lat="55.073420" lon="21.883419"><ele>17.6</ele><time>1970-01-01T00:22:50Z</time></trkpt>
			<trkpt lat="55.077808" lon="21.885259"><ele>10.5</ele><time>1970-01-01T00:22:51Z</time></trkpt>
			<trkpt lat="55.077916" lon="21.885329"><ele>10.6</ele><time>1970-01-01T00:22:52Z</time></trkpt>
			<trkpt lat="55.079227" lon="21.886986"><ele>13.0</ele><time>1970-01-01T00:22:53Z</time></trkpt>
			<trkpt lat="55.080170" lon="21.888236"><ele>12.2</ele><time>1970-01-01T00:22:54Z</time></trkpt>
			<trkpt lat="55.080876" lon="21.888805"><ele>11.7</ele><time>1970-01-01T00:22:55Z</time></trkpt>
			<trkpt lat="55.081134" lon="21.888741"><ele>12.8</ele><time>1970-01-01T00:22:56Z</time></trkpt>
			<trkpt lat="55.081137" lon="21.889229"><ele>12.5</ele><time>1970-01-01T00:22:57Z</time></trkpt>
		</trkseg>
	</trk>
</gpx>